<?xml version="1.0" encoding="UTF-8" standalone="no" ?>
<gpx xmlns="http://www.topografix.com/GPX/1/1" xmlns:xsi="http://www.w3.org/2001/XMLSchema-instance" xsi:schemaLocation="http://www.topografix.com/GPX/1/1 http://www.topografix.com/GPX/1/1/gpx.xsd" version="1.1" creator="VisuGPX - https://www.visugpx.com">
  <metadata>
    <name>83-M-le Thoronet</name>
    <desc><![CDATA[83-M-le Thoronet : de l'Abbaye à Peygros
2019-12-11]]></desc>
  </metadata>
  <trk>
    <name><![CDATA[2019-12-11-M-Thoronet]]></name>
    <trkseg>
      <trkpt lat="43.45977" lon="6.2626">
        <ele>194.4</ele>
        <time>2019-12-11T12:55:46Z</time>
      </trkpt>
      <trkpt lat="43.45976" lon="6.26261">
        <ele>194.4</ele>
        <time>2019-12-11T12:55:47Z</time>
      </trkpt>
      <trkpt lat="43.45969" lon="6.2627">
        <ele>194.7</ele>
        <time>2019-12-11T12:55:58Z</time>
      </trkpt>
      <trkpt lat="43.45966" lon="6.26282">
        <ele>195.6</ele>
        <time>2019-12-11T12:56:25Z</time>
      </trkpt>
      <trkpt lat="43.45966" lon="6.26295">
        <ele>197.3</ele>
        <time>2019-12-11T12:56:46Z</time>
      </trkpt>
      <trkpt lat="43.45959" lon="6.26304">
        <ele>198.4</ele>
        <time>2019-12-11T12:56:55Z</time>
      </trkpt>
      <trkpt lat="43.45951" lon="6.26309">
        <ele>199.9</ele>
        <time>2019-12-11T12:57:04Z</time>
      </trkpt>
      <trkpt lat="43.45941" lon="6.26306">
        <ele>201.3</ele>
        <time>2019-12-11T12:57:15Z</time>
      </trkpt>
      <trkpt lat="43.45935" lon="6.26297">
        <ele>202.5</ele>
        <time>2019-12-11T12:57:26Z</time>
      </trkpt>
      <trkpt lat="43.45933" lon="6.26284">
        <ele>203.6</ele>
        <time>2019-12-11T12:57:37Z</time>
      </trkpt>
      <trkpt lat="43.45931" lon="6.2627">
        <ele>204.4</ele>
        <time>2019-12-11T12:57:46Z</time>
      </trkpt>
      <trkpt lat="43.45927" lon="6.26259">
        <ele>205.3</ele>
        <time>2019-12-11T12:57:56Z</time>
      </trkpt>
      <trkpt lat="43.45923" lon="6.26248">
        <ele>206</ele>
        <time>2019-12-11T12:58:08Z</time>
      </trkpt>
      <trkpt lat="43.45917" lon="6.26238">
        <ele>206.8</ele>
        <time>2019-12-11T12:58:17Z</time>
      </trkpt>
      <trkpt lat="43.45911" lon="6.26227">
        <ele>207.8</ele>
        <time>2019-12-11T12:58:26Z</time>
      </trkpt>
      <trkpt lat="43.45904" lon="6.26219">
        <ele>208.3</ele>
        <time>2019-12-11T12:58:35Z</time>
      </trkpt>
      <trkpt lat="43.45899" lon="6.26207">
        <ele>208.7</ele>
        <time>2019-12-11T12:58:44Z</time>
      </trkpt>
      <trkpt lat="43.45893" lon="6.26197">
        <ele>209.1</ele>
        <time>2019-12-11T12:58:54Z</time>
      </trkpt>
      <trkpt lat="43.45886" lon="6.26186">
        <ele>209.5</ele>
        <time>2019-12-11T12:59:03Z</time>
      </trkpt>
      <trkpt lat="43.4588" lon="6.26177">
        <ele>210.1</ele>
        <time>2019-12-11T12:59:11Z</time>
      </trkpt>
      <trkpt lat="43.45874" lon="6.26165">
        <ele>210.5</ele>
        <time>2019-12-11T12:59:20Z</time>
      </trkpt>
      <trkpt lat="43.45867" lon="6.26157">
        <ele>211</ele>
        <time>2019-12-11T12:59:28Z</time>
      </trkpt>
      <trkpt lat="43.45859" lon="6.26149">
        <ele>211.4</ele>
        <time>2019-12-11T12:59:37Z</time>
      </trkpt>
      <trkpt lat="43.45851" lon="6.26143">
        <ele>211.7</ele>
        <time>2019-12-11T12:59:46Z</time>
      </trkpt>
      <trkpt lat="43.45843" lon="6.26136">
        <ele>212.2</ele>
        <time>2019-12-11T12:59:57Z</time>
      </trkpt>
      <trkpt lat="43.45835" lon="6.2613">
        <ele>212.9</ele>
        <time>2019-12-11T13:00:07Z</time>
      </trkpt>
      <trkpt lat="43.45826" lon="6.26124">
        <ele>213.9</ele>
        <time>2019-12-11T13:00:19Z</time>
      </trkpt>
      <trkpt lat="43.45817" lon="6.26122">
        <ele>214.4</ele>
        <time>2019-12-11T13:00:27Z</time>
      </trkpt>
      <trkpt lat="43.45807" lon="6.26122">
        <ele>214.8</ele>
        <time>2019-12-11T13:00:35Z</time>
      </trkpt>
      <trkpt lat="43.45797" lon="6.26122">
        <ele>215.3</ele>
        <time>2019-12-11T13:00:45Z</time>
      </trkpt>
      <trkpt lat="43.45788" lon="6.2612">
        <ele>216.1</ele>
        <time>2019-12-11T13:00:55Z</time>
      </trkpt>
      <trkpt lat="43.4578" lon="6.26114">
        <ele>217.5</ele>
        <time>2019-12-11T13:01:08Z</time>
      </trkpt>
      <trkpt lat="43.45774" lon="6.26104">
        <ele>219.7</ele>
        <time>2019-12-11T13:01:23Z</time>
      </trkpt>
      <trkpt lat="43.45766" lon="6.26098">
        <ele>221.2</ele>
        <time>2019-12-11T13:01:34Z</time>
      </trkpt>
      <trkpt lat="43.45757" lon="6.26095">
        <ele>222.6</ele>
        <time>2019-12-11T13:01:47Z</time>
      </trkpt>
      <trkpt lat="43.45748" lon="6.26091">
        <ele>224.2</ele>
        <time>2019-12-11T13:01:59Z</time>
      </trkpt>
      <trkpt lat="43.45739" lon="6.26086">
        <ele>226.4</ele>
        <time>2019-12-11T13:02:15Z</time>
      </trkpt>
      <trkpt lat="43.4573" lon="6.26081">
        <ele>228.6</ele>
        <time>2019-12-11T13:02:28Z</time>
      </trkpt>
      <trkpt lat="43.45721" lon="6.26081">
        <ele>229.6</ele>
        <time>2019-12-11T13:02:34Z</time>
      </trkpt>
      <trkpt lat="43.45711" lon="6.26081">
        <ele>230.5</ele>
        <time>2019-12-11T13:02:42Z</time>
      </trkpt>
      <trkpt lat="43.45702" lon="6.26081">
        <ele>231.6</ele>
        <time>2019-12-11T13:02:50Z</time>
      </trkpt>
      <trkpt lat="43.45693" lon="6.26079">
        <ele>232.8</ele>
        <time>2019-12-11T13:02:59Z</time>
      </trkpt>
      <trkpt lat="43.45683" lon="6.26078">
        <ele>234.2</ele>
        <time>2019-12-11T13:03:11Z</time>
      </trkpt>
      <trkpt lat="43.45674" lon="6.2608">
        <ele>235.7</ele>
        <time>2019-12-11T13:03:24Z</time>
      </trkpt>
      <trkpt lat="43.45665" lon="6.26079">
        <ele>236.6</ele>
        <time>2019-12-11T13:03:34Z</time>
      </trkpt>
      <trkpt lat="43.45654" lon="6.26078">
        <ele>237.7</ele>
        <time>2019-12-11T13:03:45Z</time>
      </trkpt>
      <trkpt lat="43.45645" lon="6.26079">
        <ele>238.2</ele>
        <time>2019-12-11T13:03:51Z</time>
      </trkpt>
      <trkpt lat="43.45636" lon="6.26078">
        <ele>238.7</ele>
        <time>2019-12-11T13:04:00Z</time>
      </trkpt>
      <trkpt lat="43.45627" lon="6.26074">
        <ele>239.2</ele>
        <time>2019-12-11T13:04:11Z</time>
      </trkpt>
      <trkpt lat="43.45619" lon="6.26066">
        <ele>240</ele>
        <time>2019-12-11T13:04:23Z</time>
      </trkpt>
      <trkpt lat="43.4561" lon="6.26065">
        <ele>240.5</ele>
        <time>2019-12-11T13:04:31Z</time>
      </trkpt>
      <trkpt lat="43.45601" lon="6.2606">
        <ele>240.9</ele>
        <time>2019-12-11T13:04:41Z</time>
      </trkpt>
      <trkpt lat="43.45592" lon="6.2606">
        <ele>241.3</ele>
        <time>2019-12-11T13:04:49Z</time>
      </trkpt>
      <trkpt lat="43.45581" lon="6.26058">
        <ele>241.6</ele>
        <time>2019-12-11T13:04:57Z</time>
      </trkpt>
      <trkpt lat="43.45572" lon="6.26054">
        <ele>242.2</ele>
        <time>2019-12-11T13:05:07Z</time>
      </trkpt>
      <trkpt lat="43.45562" lon="6.26052">
        <ele>243</ele>
        <time>2019-12-11T13:05:19Z</time>
      </trkpt>
      <trkpt lat="43.45552" lon="6.26053">
        <ele>243.6</ele>
        <time>2019-12-11T13:05:27Z</time>
      </trkpt>
      <trkpt lat="43.45543" lon="6.26051">
        <ele>244.3</ele>
        <time>2019-12-11T13:05:36Z</time>
      </trkpt>
      <trkpt lat="43.45534" lon="6.26046">
        <ele>245.1</ele>
        <time>2019-12-11T13:05:45Z</time>
      </trkpt>
      <trkpt lat="43.45525" lon="6.26042">
        <ele>246.2</ele>
        <time>2019-12-11T13:05:54Z</time>
      </trkpt>
      <trkpt lat="43.45517" lon="6.26037">
        <ele>247.7</ele>
        <time>2019-12-11T13:06:04Z</time>
      </trkpt>
      <trkpt lat="43.45508" lon="6.26029">
        <ele>249.5</ele>
        <time>2019-12-11T13:06:16Z</time>
      </trkpt>
      <trkpt lat="43.455" lon="6.26024">
        <ele>250.8</ele>
        <time>2019-12-11T13:06:26Z</time>
      </trkpt>
      <trkpt lat="43.45491" lon="6.26021">
        <ele>252</ele>
        <time>2019-12-11T13:06:35Z</time>
      </trkpt>
      <trkpt lat="43.45483" lon="6.26016">
        <ele>253.3</ele>
        <time>2019-12-11T13:06:49Z</time>
      </trkpt>
      <trkpt lat="43.45474" lon="6.26014">
        <ele>254.2</ele>
        <time>2019-12-11T13:06:58Z</time>
      </trkpt>
      <trkpt lat="43.45465" lon="6.2601">
        <ele>255</ele>
        <time>2019-12-11T13:07:06Z</time>
      </trkpt>
      <trkpt lat="43.45456" lon="6.26008">
        <ele>255.7</ele>
        <time>2019-12-11T13:07:16Z</time>
      </trkpt>
      <trkpt lat="43.45446" lon="6.26007">
        <ele>256.4</ele>
        <time>2019-12-11T13:07:27Z</time>
      </trkpt>
      <trkpt lat="43.45437" lon="6.26003">
        <ele>257</ele>
        <time>2019-12-11T13:07:36Z</time>
      </trkpt>
      <trkpt lat="43.45429" lon="6.25997">
        <ele>257.6</ele>
        <time>2019-12-11T13:07:46Z</time>
      </trkpt>
      <trkpt lat="43.4542" lon="6.2599">
        <ele>258.2</ele>
        <time>2019-12-11T13:07:56Z</time>
      </trkpt>
      <trkpt lat="43.45413" lon="6.25981">
        <ele>258.9</ele>
        <time>2019-12-11T13:08:04Z</time>
      </trkpt>
      <trkpt lat="43.45406" lon="6.25973">
        <ele>259.7</ele>
        <time>2019-12-11T13:08:13Z</time>
      </trkpt>
      <trkpt lat="43.454" lon="6.25964">
        <ele>260.6</ele>
        <time>2019-12-11T13:08:22Z</time>
      </trkpt>
      <trkpt lat="43.45394" lon="6.25955">
        <ele>261.6</ele>
        <time>2019-12-11T13:08:31Z</time>
      </trkpt>
      <trkpt lat="43.45389" lon="6.25944">
        <ele>262.4</ele>
        <time>2019-12-11T13:08:40Z</time>
      </trkpt>
      <trkpt lat="43.45383" lon="6.25934">
        <ele>262.9</ele>
        <time>2019-12-11T13:08:49Z</time>
      </trkpt>
      <trkpt lat="43.45375" lon="6.25926">
        <ele>263.8</ele>
        <time>2019-12-11T13:08:58Z</time>
      </trkpt>
      <trkpt lat="43.45367" lon="6.25918">
        <ele>264.4</ele>
        <time>2019-12-11T13:09:07Z</time>
      </trkpt>
      <trkpt lat="43.45358" lon="6.25912">
        <ele>264.9</ele>
        <time>2019-12-11T13:09:15Z</time>
      </trkpt>
      <trkpt lat="43.4535" lon="6.25906">
        <ele>265.4</ele>
        <time>2019-12-11T13:09:23Z</time>
      </trkpt>
      <trkpt lat="43.45341" lon="6.259">
        <ele>265.9</ele>
        <time>2019-12-11T13:09:33Z</time>
      </trkpt>
      <trkpt lat="43.45333" lon="6.25895">
        <ele>266.6</ele>
        <time>2019-12-11T13:09:41Z</time>
      </trkpt>
      <trkpt lat="43.45325" lon="6.25888">
        <ele>267.3</ele>
        <time>2019-12-11T13:09:49Z</time>
      </trkpt>
      <trkpt lat="43.45317" lon="6.25883">
        <ele>267.8</ele>
        <time>2019-12-11T13:09:57Z</time>
      </trkpt>
      <trkpt lat="43.45308" lon="6.25876">
        <ele>268.6</ele>
        <time>2019-12-11T13:10:06Z</time>
      </trkpt>
      <trkpt lat="43.45302" lon="6.25866">
        <ele>269.3</ele>
        <time>2019-12-11T13:10:15Z</time>
      </trkpt>
      <trkpt lat="43.45296" lon="6.25856">
        <ele>269.8</ele>
        <time>2019-12-11T13:10:24Z</time>
      </trkpt>
      <trkpt lat="43.45292" lon="6.25845">
        <ele>270.4</ele>
        <time>2019-12-11T13:10:32Z</time>
      </trkpt>
      <trkpt lat="43.45289" lon="6.25832">
        <ele>270.8</ele>
        <time>2019-12-11T13:10:40Z</time>
      </trkpt>
      <trkpt lat="43.45285" lon="6.25822">
        <ele>271.6</ele>
        <time>2019-12-11T13:10:52Z</time>
      </trkpt>
      <trkpt lat="43.45281" lon="6.25809">
        <ele>272.1</ele>
        <time>2019-12-11T13:11:01Z</time>
      </trkpt>
      <trkpt lat="43.45277" lon="6.25797">
        <ele>272.9</ele>
        <time>2019-12-11T13:11:12Z</time>
      </trkpt>
      <trkpt lat="43.45277" lon="6.25785">
        <ele>273.8</ele>
        <time>2019-12-11T13:11:25Z</time>
      </trkpt>
      <trkpt lat="43.45272" lon="6.25773">
        <ele>274.5</ele>
        <time>2019-12-11T13:11:36Z</time>
      </trkpt>
      <trkpt lat="43.45274" lon="6.2576">
        <ele>275</ele>
        <time>2019-12-11T13:11:47Z</time>
      </trkpt>
      <trkpt lat="43.45275" lon="6.25747">
        <ele>275.4</ele>
        <time>2019-12-11T13:11:57Z</time>
      </trkpt>
      <trkpt lat="43.45275" lon="6.25733">
        <ele>275.8</ele>
        <time>2019-12-11T13:12:06Z</time>
      </trkpt>
      <trkpt lat="43.45278" lon="6.25721">
        <ele>276.1</ele>
        <time>2019-12-11T13:12:15Z</time>
      </trkpt>
      <trkpt lat="43.45281" lon="6.25708">
        <ele>276.3</ele>
        <time>2019-12-11T13:12:26Z</time>
      </trkpt>
      <trkpt lat="43.45282" lon="6.25695">
        <ele>276.3</ele>
        <time>2019-12-11T13:12:39Z</time>
      </trkpt>
      <trkpt lat="43.45288" lon="6.25684">
        <ele>275.7</ele>
        <time>2019-12-11T13:12:49Z</time>
      </trkpt>
      <trkpt lat="43.45292" lon="6.25673">
        <ele>274.8</ele>
        <time>2019-12-11T13:13:00Z</time>
      </trkpt>
      <trkpt lat="43.45297" lon="6.25662">
        <ele>273.5</ele>
        <time>2019-12-11T13:13:10Z</time>
      </trkpt>
      <trkpt lat="43.45302" lon="6.2565">
        <ele>272.4</ele>
        <time>2019-12-11T13:13:20Z</time>
      </trkpt>
      <trkpt lat="43.45304" lon="6.25638">
        <ele>272.4</ele>
        <time>2019-12-11T13:13:30Z</time>
      </trkpt>
      <trkpt lat="43.45306" lon="6.25626">
        <ele>273</ele>
        <time>2019-12-11T13:13:41Z</time>
      </trkpt>
      <trkpt lat="43.45311" lon="6.25615">
        <ele>273.8</ele>
        <time>2019-12-11T13:13:52Z</time>
      </trkpt>
      <trkpt lat="43.45312" lon="6.25602">
        <ele>275.4</ele>
        <time>2019-12-11T13:14:04Z</time>
      </trkpt>
      <trkpt lat="43.45313" lon="6.25589">
        <ele>277.7</ele>
        <time>2019-12-11T13:14:37Z</time>
      </trkpt>
      <trkpt lat="43.45305" lon="6.25596">
        <ele>283.9</ele>
        <time>2019-12-11T13:16:12Z</time>
      </trkpt>
      <trkpt lat="43.45297" lon="6.25602">
        <ele>286.6</ele>
        <time>2019-12-11T13:16:29Z</time>
      </trkpt>
      <trkpt lat="43.45288" lon="6.25606">
        <ele>288.8</ele>
        <time>2019-12-11T13:16:44Z</time>
      </trkpt>
      <trkpt lat="43.45279" lon="6.2561">
        <ele>291</ele>
        <time>2019-12-11T13:17:00Z</time>
      </trkpt>
      <trkpt lat="43.45271" lon="6.25617">
        <ele>293.1</ele>
        <time>2019-12-11T13:17:17Z</time>
      </trkpt>
      <trkpt lat="43.45262" lon="6.25618">
        <ele>294.2</ele>
        <time>2019-12-11T13:17:29Z</time>
      </trkpt>
      <trkpt lat="43.45252" lon="6.25618">
        <ele>295.3</ele>
        <time>2019-12-11T13:17:39Z</time>
      </trkpt>
      <trkpt lat="43.45243" lon="6.25615">
        <ele>297.3</ele>
        <time>2019-12-11T13:17:55Z</time>
      </trkpt>
      <trkpt lat="43.45234" lon="6.25613">
        <ele>298.9</ele>
        <time>2019-12-11T13:18:10Z</time>
      </trkpt>
      <trkpt lat="43.45226" lon="6.25608">
        <ele>300.5</ele>
        <time>2019-12-11T13:18:24Z</time>
      </trkpt>
      <trkpt lat="43.45218" lon="6.25601">
        <ele>302.5</ele>
        <time>2019-12-11T13:18:39Z</time>
      </trkpt>
      <trkpt lat="43.45209" lon="6.256">
        <ele>304.2</ele>
        <time>2019-12-11T13:18:51Z</time>
      </trkpt>
      <trkpt lat="43.45201" lon="6.25592">
        <ele>306</ele>
        <time>2019-12-11T13:19:04Z</time>
      </trkpt>
      <trkpt lat="43.45193" lon="6.25585">
        <ele>308.4</ele>
        <time>2019-12-11T13:19:20Z</time>
      </trkpt>
      <trkpt lat="43.45185" lon="6.25579">
        <ele>310.8</ele>
        <time>2019-12-11T13:19:38Z</time>
      </trkpt>
      <trkpt lat="43.45177" lon="6.25573">
        <ele>313.7</ele>
        <time>2019-12-11T13:19:56Z</time>
      </trkpt>
      <trkpt lat="43.45167" lon="6.25571">
        <ele>316.2</ele>
        <time>2019-12-11T13:20:13Z</time>
      </trkpt>
      <trkpt lat="43.45161" lon="6.25562">
        <ele>318</ele>
        <time>2019-12-11T13:20:56Z</time>
      </trkpt>
      <trkpt lat="43.45162" lon="6.25548">
        <ele>318.2</ele>
        <time>2019-12-11T13:22:15Z</time>
      </trkpt>
      <trkpt lat="43.4516" lon="6.25536">
        <ele>319.1</ele>
        <time>2019-12-11T13:22:32Z</time>
      </trkpt>
      <trkpt lat="43.45161" lon="6.25523">
        <ele>320.1</ele>
        <time>2019-12-11T13:22:45Z</time>
      </trkpt>
      <trkpt lat="43.45161" lon="6.25511">
        <ele>321.4</ele>
        <time>2019-12-11T13:22:59Z</time>
      </trkpt>
      <trkpt lat="43.4516" lon="6.25498">
        <ele>322.4</ele>
        <time>2019-12-11T13:23:12Z</time>
      </trkpt>
      <trkpt lat="43.45161" lon="6.25485">
        <ele>323.3</ele>
        <time>2019-12-11T13:23:24Z</time>
      </trkpt>
      <trkpt lat="43.4516" lon="6.25472">
        <ele>323.5</ele>
        <time>2019-12-11T13:23:32Z</time>
      </trkpt>
      <trkpt lat="43.45163" lon="6.2546">
        <ele>323.9</ele>
        <time>2019-12-11T13:23:42Z</time>
      </trkpt>
      <trkpt lat="43.45166" lon="6.25447">
        <ele>323.8</ele>
        <time>2019-12-11T13:23:51Z</time>
      </trkpt>
      <trkpt lat="43.45165" lon="6.25434">
        <ele>323.3</ele>
        <time>2019-12-11T13:24:06Z</time>
      </trkpt>
      <trkpt lat="43.45164" lon="6.25422">
        <ele>322.3</ele>
        <time>2019-12-11T13:24:20Z</time>
      </trkpt>
      <trkpt lat="43.45159" lon="6.25411">
        <ele>320.8</ele>
        <time>2019-12-11T13:24:37Z</time>
      </trkpt>
      <trkpt lat="43.45156" lon="6.25399">
        <ele>318.7</ele>
        <time>2019-12-11T13:24:53Z</time>
      </trkpt>
      <trkpt lat="43.45152" lon="6.25388">
        <ele>316.1</ele>
        <time>2019-12-11T13:25:13Z</time>
      </trkpt>
      <trkpt lat="43.45149" lon="6.25376">
        <ele>313.5</ele>
        <time>2019-12-11T13:25:30Z</time>
      </trkpt>
      <trkpt lat="43.45146" lon="6.25364">
        <ele>310.6</ele>
        <time>2019-12-11T13:25:50Z</time>
      </trkpt>
      <trkpt lat="43.45144" lon="6.25352">
        <ele>307.6</ele>
        <time>2019-12-11T13:26:10Z</time>
      </trkpt>
      <trkpt lat="43.45143" lon="6.25339">
        <ele>304.2</ele>
        <time>2019-12-11T13:26:34Z</time>
      </trkpt>
      <trkpt lat="43.45134" lon="6.25336">
        <ele>300.6</ele>
        <time>2019-12-11T13:28:26Z</time>
      </trkpt>
      <trkpt lat="43.45127" lon="6.25345">
        <ele>300.9</ele>
        <time>2019-12-11T13:28:42Z</time>
      </trkpt>
      <trkpt lat="43.45119" lon="6.25353">
        <ele>301.6</ele>
        <time>2019-12-11T13:28:55Z</time>
      </trkpt>
      <trkpt lat="43.4511" lon="6.25357">
        <ele>302.2</ele>
        <time>2019-12-11T13:29:09Z</time>
      </trkpt>
      <trkpt lat="43.45101" lon="6.25357">
        <ele>302.5</ele>
        <time>2019-12-11T13:29:22Z</time>
      </trkpt>
      <trkpt lat="43.45092" lon="6.25357">
        <ele>302</ele>
        <time>2019-12-11T13:29:34Z</time>
      </trkpt>
      <trkpt lat="43.45082" lon="6.25359">
        <ele>303.3</ele>
        <time>2019-12-11T13:29:44Z</time>
      </trkpt>
      <trkpt lat="43.45073" lon="6.2536">
        <ele>303.6</ele>
        <time>2019-12-11T13:29:53Z</time>
      </trkpt>
      <trkpt lat="43.45064" lon="6.25363">
        <ele>304</ele>
        <time>2019-12-11T13:30:05Z</time>
      </trkpt>
      <trkpt lat="43.45054" lon="6.25366">
        <ele>304.3</ele>
        <time>2019-12-11T13:30:17Z</time>
      </trkpt>
      <trkpt lat="43.45046" lon="6.25371">
        <ele>305.3</ele>
        <time>2019-12-11T13:30:31Z</time>
      </trkpt>
      <trkpt lat="43.45038" lon="6.25377">
        <ele>306.4</ele>
        <time>2019-12-11T13:30:45Z</time>
      </trkpt>
      <trkpt lat="43.45029" lon="6.25383">
        <ele>307.2</ele>
        <time>2019-12-11T13:30:55Z</time>
      </trkpt>
      <trkpt lat="43.45021" lon="6.25389">
        <ele>308.4</ele>
        <time>2019-12-11T13:31:09Z</time>
      </trkpt>
      <trkpt lat="43.45013" lon="6.25396">
        <ele>309.1</ele>
        <time>2019-12-11T13:31:19Z</time>
      </trkpt>
      <trkpt lat="43.45007" lon="6.25406">
        <ele>309.2</ele>
        <time>2019-12-11T13:31:28Z</time>
      </trkpt>
      <trkpt lat="43.44999" lon="6.25413">
        <ele>309.3</ele>
        <time>2019-12-11T13:31:37Z</time>
      </trkpt>
      <trkpt lat="43.44991" lon="6.25421">
        <ele>309.6</ele>
        <time>2019-12-11T13:31:57Z</time>
      </trkpt>
      <trkpt lat="43.44984" lon="6.25429">
        <ele>309.6</ele>
        <time>2019-12-11T13:32:20Z</time>
      </trkpt>
      <trkpt lat="43.44977" lon="6.25438">
        <ele>309.6</ele>
        <time>2019-12-11T13:32:34Z</time>
      </trkpt>
      <trkpt lat="43.44972" lon="6.25448">
        <ele>309.6</ele>
        <time>2019-12-11T13:32:49Z</time>
      </trkpt>
      <trkpt lat="43.44966" lon="6.25459">
        <ele>310.2</ele>
        <time>2019-12-11T13:33:05Z</time>
      </trkpt>
      <trkpt lat="43.4496" lon="6.25468">
        <ele>311</ele>
        <time>2019-12-11T13:33:17Z</time>
      </trkpt>
      <trkpt lat="43.44954" lon="6.25478">
        <ele>312.2</ele>
        <time>2019-12-11T13:33:30Z</time>
      </trkpt>
      <trkpt lat="43.44947" lon="6.25487">
        <ele>312.8</ele>
        <time>2019-12-11T13:33:41Z</time>
      </trkpt>
      <trkpt lat="43.44941" lon="6.25496">
        <ele>313.1</ele>
        <time>2019-12-11T13:33:52Z</time>
      </trkpt>
      <trkpt lat="43.44934" lon="6.25505">
        <ele>313.3</ele>
        <time>2019-12-11T13:34:04Z</time>
      </trkpt>
      <trkpt lat="43.44926" lon="6.25512">
        <ele>313.7</ele>
        <time>2019-12-11T13:34:15Z</time>
      </trkpt>
      <trkpt lat="43.44918" lon="6.25519">
        <ele>314</ele>
        <time>2019-12-11T13:34:25Z</time>
      </trkpt>
      <trkpt lat="43.4491" lon="6.25526">
        <ele>314.3</ele>
        <time>2019-12-11T13:34:33Z</time>
      </trkpt>
      <trkpt lat="43.449" lon="6.25529">
        <ele>314.7</ele>
        <time>2019-12-11T13:34:43Z</time>
      </trkpt>
      <trkpt lat="43.44891" lon="6.25531">
        <ele>314.9</ele>
        <time>2019-12-11T13:34:52Z</time>
      </trkpt>
      <trkpt lat="43.44882" lon="6.25534">
        <ele>314.9</ele>
        <time>2019-12-11T13:35:03Z</time>
      </trkpt>
      <trkpt lat="43.44872" lon="6.25535">
        <ele>315.2</ele>
        <time>2019-12-11T13:35:13Z</time>
      </trkpt>
      <trkpt lat="43.44863" lon="6.25535">
        <ele>315.5</ele>
        <time>2019-12-11T13:35:22Z</time>
      </trkpt>
      <trkpt lat="43.44853" lon="6.25534">
        <ele>316.1</ele>
        <time>2019-12-11T13:35:32Z</time>
      </trkpt>
      <trkpt lat="43.44844" lon="6.25536">
        <ele>316.7</ele>
        <time>2019-12-11T13:35:42Z</time>
      </trkpt>
      <trkpt lat="43.44836" lon="6.25542">
        <ele>317.2</ele>
        <time>2019-12-11T13:35:51Z</time>
      </trkpt>
      <trkpt lat="43.44829" lon="6.25551">
        <ele>317.5</ele>
        <time>2019-12-11T13:36:01Z</time>
      </trkpt>
      <trkpt lat="43.44823" lon="6.25562">
        <ele>317.7</ele>
        <time>2019-12-11T13:36:11Z</time>
      </trkpt>
      <trkpt lat="43.44815" lon="6.25571">
        <ele>317.9</ele>
        <time>2019-12-11T13:36:23Z</time>
      </trkpt>
      <trkpt lat="43.44811" lon="6.25583">
        <ele>318.5</ele>
        <time>2019-12-11T13:36:35Z</time>
      </trkpt>
      <trkpt lat="43.44807" lon="6.25594">
        <ele>318.8</ele>
        <time>2019-12-11T13:36:43Z</time>
      </trkpt>
      <trkpt lat="43.44801" lon="6.25606">
        <ele>319</ele>
        <time>2019-12-11T13:36:52Z</time>
      </trkpt>
      <trkpt lat="43.44792" lon="6.25615">
        <ele>319.1</ele>
        <time>2019-12-11T13:37:01Z</time>
      </trkpt>
      <trkpt lat="43.44785" lon="6.25623">
        <ele>319.3</ele>
        <time>2019-12-11T13:37:12Z</time>
      </trkpt>
      <trkpt lat="43.44777" lon="6.2563">
        <ele>319.4</ele>
        <time>2019-12-11T13:37:21Z</time>
      </trkpt>
      <trkpt lat="43.44769" lon="6.25638">
        <ele>319.5</ele>
        <time>2019-12-11T13:37:30Z</time>
      </trkpt>
      <trkpt lat="43.44764" lon="6.25648">
        <ele>319.6</ele>
        <time>2019-12-11T13:37:39Z</time>
      </trkpt>
      <trkpt lat="43.4476" lon="6.2566">
        <ele>319.8</ele>
        <time>2019-12-11T13:37:48Z</time>
      </trkpt>
      <trkpt lat="43.44757" lon="6.25673">
        <ele>319.9</ele>
        <time>2019-12-11T13:37:57Z</time>
      </trkpt>
      <trkpt lat="43.44756" lon="6.25686">
        <ele>320</ele>
        <time>2019-12-11T13:38:09Z</time>
      </trkpt>
      <trkpt lat="43.44752" lon="6.25698">
        <ele>320.2</ele>
        <time>2019-12-11T13:38:27Z</time>
      </trkpt>
      <trkpt lat="43.44753" lon="6.25711">
        <ele>320.4</ele>
        <time>2019-12-11T13:38:45Z</time>
      </trkpt>
      <trkpt lat="43.44752" lon="6.25725">
        <ele>320.7</ele>
        <time>2019-12-11T13:38:54Z</time>
      </trkpt>
      <trkpt lat="43.44752" lon="6.25738">
        <ele>320.9</ele>
        <time>2019-12-11T13:39:02Z</time>
      </trkpt>
      <trkpt lat="43.44751" lon="6.25751">
        <ele>321.6</ele>
        <time>2019-12-11T13:39:12Z</time>
      </trkpt>
      <trkpt lat="43.44753" lon="6.25765">
        <ele>322.2</ele>
        <time>2019-12-11T13:39:22Z</time>
      </trkpt>
      <trkpt lat="43.44753" lon="6.25779">
        <ele>322.4</ele>
        <time>2019-12-11T13:39:34Z</time>
      </trkpt>
      <trkpt lat="43.44755" lon="6.25792">
        <ele>322.9</ele>
        <time>2019-12-11T13:39:46Z</time>
      </trkpt>
      <trkpt lat="43.44755" lon="6.25805">
        <ele>323.5</ele>
        <time>2019-12-11T13:39:55Z</time>
      </trkpt>
      <trkpt lat="43.44755" lon="6.25817">
        <ele>323.8</ele>
        <time>2019-12-11T13:40:04Z</time>
      </trkpt>
      <trkpt lat="43.44753" lon="6.25829">
        <ele>324</ele>
        <time>2019-12-11T13:40:14Z</time>
      </trkpt>
      <trkpt lat="43.44751" lon="6.25842">
        <ele>324.5</ele>
        <time>2019-12-11T13:40:24Z</time>
      </trkpt>
      <trkpt lat="43.44748" lon="6.25854">
        <ele>324.8</ele>
        <time>2019-12-11T13:40:33Z</time>
      </trkpt>
      <trkpt lat="43.44742" lon="6.25864">
        <ele>325.2</ele>
        <time>2019-12-11T13:40:40Z</time>
      </trkpt>
      <trkpt lat="43.44734" lon="6.25874">
        <ele>325.3</ele>
        <time>2019-12-11T13:40:49Z</time>
      </trkpt>
      <trkpt lat="43.44728" lon="6.25883">
        <ele>325.3</ele>
        <time>2019-12-11T13:40:58Z</time>
      </trkpt>
      <trkpt lat="43.44724" lon="6.25895">
        <ele>325.3</ele>
        <time>2019-12-11T13:41:09Z</time>
      </trkpt>
      <trkpt lat="43.44719" lon="6.25905">
        <ele>325.3</ele>
        <time>2019-12-11T13:41:19Z</time>
      </trkpt>
      <trkpt lat="43.44714" lon="6.25916">
        <ele>325.4</ele>
        <time>2019-12-11T13:41:28Z</time>
      </trkpt>
      <trkpt lat="43.44712" lon="6.25928">
        <ele>325.9</ele>
        <time>2019-12-11T13:41:37Z</time>
      </trkpt>
      <trkpt lat="43.44707" lon="6.25939">
        <ele>326.5</ele>
        <time>2019-12-11T13:41:48Z</time>
      </trkpt>
      <trkpt lat="43.44701" lon="6.25949">
        <ele>326.9</ele>
        <time>2019-12-11T13:41:58Z</time>
      </trkpt>
      <trkpt lat="43.44695" lon="6.2596">
        <ele>327.3</ele>
        <time>2019-12-11T13:42:07Z</time>
      </trkpt>
      <trkpt lat="43.44688" lon="6.25971">
        <ele>327.6</ele>
        <time>2019-12-11T13:42:15Z</time>
      </trkpt>
      <trkpt lat="43.44681" lon="6.25979">
        <ele>328.2</ele>
        <time>2019-12-11T13:42:23Z</time>
      </trkpt>
      <trkpt lat="43.44674" lon="6.25986">
        <ele>328.8</ele>
        <time>2019-12-11T13:42:33Z</time>
      </trkpt>
      <trkpt lat="43.44665" lon="6.25992">
        <ele>329.3</ele>
        <time>2019-12-11T13:42:42Z</time>
      </trkpt>
      <trkpt lat="43.44656" lon="6.2599">
        <ele>329.6</ele>
        <time>2019-12-11T13:42:51Z</time>
      </trkpt>
      <trkpt lat="43.44649" lon="6.25998">
        <ele>329.8</ele>
        <time>2019-12-11T13:43:02Z</time>
      </trkpt>
      <trkpt lat="43.44643" lon="6.26009">
        <ele>330</ele>
        <time>2019-12-11T13:43:16Z</time>
      </trkpt>
      <trkpt lat="43.44633" lon="6.26011">
        <ele>330.2</ele>
        <time>2019-12-11T13:43:24Z</time>
      </trkpt>
      <trkpt lat="43.44623" lon="6.26013">
        <ele>330.7</ele>
        <time>2019-12-11T13:43:35Z</time>
      </trkpt>
      <trkpt lat="43.44614" lon="6.2601">
        <ele>331.2</ele>
        <time>2019-12-11T13:43:43Z</time>
      </trkpt>
      <trkpt lat="43.44605" lon="6.26019">
        <ele>331.7</ele>
        <time>2019-12-11T13:43:56Z</time>
      </trkpt>
      <trkpt lat="43.44597" lon="6.26026">
        <ele>332.2</ele>
        <time>2019-12-11T13:44:05Z</time>
      </trkpt>
      <trkpt lat="43.44594" lon="6.26039">
        <ele>332.5</ele>
        <time>2019-12-11T13:44:15Z</time>
      </trkpt>
      <trkpt lat="43.44586" lon="6.26044">
        <ele>333.1</ele>
        <time>2019-12-11T13:44:23Z</time>
      </trkpt>
      <trkpt lat="43.44577" lon="6.26049">
        <ele>333.6</ele>
        <time>2019-12-11T13:44:35Z</time>
      </trkpt>
      <trkpt lat="43.44569" lon="6.26056">
        <ele>334.2</ele>
        <time>2019-12-11T13:44:47Z</time>
      </trkpt>
      <trkpt lat="43.4456" lon="6.2606">
        <ele>335</ele>
        <time>2019-12-11T13:44:56Z</time>
      </trkpt>
      <trkpt lat="43.44555" lon="6.26071">
        <ele>336</ele>
        <time>2019-12-11T13:45:08Z</time>
      </trkpt>
      <trkpt lat="43.44557" lon="6.26083">
        <ele>336.8</ele>
        <time>2019-12-11T13:45:20Z</time>
      </trkpt>
      <trkpt lat="43.44562" lon="6.26094">
        <ele>337.3</ele>
        <time>2019-12-11T13:45:31Z</time>
      </trkpt>
      <trkpt lat="43.44566" lon="6.26107">
        <ele>337.9</ele>
        <time>2019-12-11T13:45:43Z</time>
      </trkpt>
      <trkpt lat="43.44562" lon="6.26118">
        <ele>338.5</ele>
        <time>2019-12-11T13:45:53Z</time>
      </trkpt>
      <trkpt lat="43.44552" lon="6.26122">
        <ele>339.1</ele>
        <time>2019-12-11T13:46:03Z</time>
      </trkpt>
      <trkpt lat="43.44545" lon="6.2613">
        <ele>339.7</ele>
        <time>2019-12-11T13:46:15Z</time>
      </trkpt>
      <trkpt lat="43.44543" lon="6.26143">
        <ele>340.8</ele>
        <time>2019-12-11T13:46:26Z</time>
      </trkpt>
      <trkpt lat="43.44538" lon="6.26154">
        <ele>342.2</ele>
        <time>2019-12-11T13:46:37Z</time>
      </trkpt>
      <trkpt lat="43.4454" lon="6.26166">
        <ele>343.4</ele>
        <time>2019-12-11T13:46:48Z</time>
      </trkpt>
      <trkpt lat="43.44541" lon="6.26179">
        <ele>344.6</ele>
        <time>2019-12-11T13:46:59Z</time>
      </trkpt>
      <trkpt lat="43.44542" lon="6.26192">
        <ele>345.7</ele>
        <time>2019-12-11T13:47:10Z</time>
      </trkpt>
      <trkpt lat="43.44541" lon="6.26205">
        <ele>347</ele>
        <time>2019-12-11T13:47:21Z</time>
      </trkpt>
      <trkpt lat="43.44541" lon="6.26218">
        <ele>348.5</ele>
        <time>2019-12-11T13:47:33Z</time>
      </trkpt>
      <trkpt lat="43.44542" lon="6.26231">
        <ele>350</ele>
        <time>2019-12-11T13:47:44Z</time>
      </trkpt>
      <trkpt lat="43.44543" lon="6.26243">
        <ele>351.3</ele>
        <time>2019-12-11T13:47:55Z</time>
      </trkpt>
      <trkpt lat="43.44544" lon="6.26256">
        <ele>352.8</ele>
        <time>2019-12-11T13:48:07Z</time>
      </trkpt>
      <trkpt lat="43.44551" lon="6.26266">
        <ele>353.8</ele>
        <time>2019-12-11T13:48:19Z</time>
      </trkpt>
      <trkpt lat="43.44557" lon="6.26275">
        <ele>354.7</ele>
        <time>2019-12-11T13:48:30Z</time>
      </trkpt>
      <trkpt lat="43.44563" lon="6.26285">
        <ele>355.6</ele>
        <time>2019-12-11T13:48:40Z</time>
      </trkpt>
      <trkpt lat="43.44572" lon="6.2629">
        <ele>356.2</ele>
        <time>2019-12-11T13:48:50Z</time>
      </trkpt>
      <trkpt lat="43.44582" lon="6.26293">
        <ele>356.5</ele>
        <time>2019-12-11T13:48:58Z</time>
      </trkpt>
      <trkpt lat="43.44591" lon="6.26298">
        <ele>356.7</ele>
        <time>2019-12-11T13:49:08Z</time>
      </trkpt>
      <trkpt lat="43.44594" lon="6.2631">
        <ele>357.1</ele>
        <time>2019-12-11T13:49:18Z</time>
      </trkpt>
      <trkpt lat="43.44595" lon="6.26323">
        <ele>357.9</ele>
        <time>2019-12-11T13:49:29Z</time>
      </trkpt>
      <trkpt lat="43.44596" lon="6.26336">
        <ele>359.8</ele>
        <time>2019-12-11T13:50:32Z</time>
      </trkpt>
      <trkpt lat="43.44604" lon="6.26331">
        <ele>360.7</ele>
        <time>2019-12-11T13:56:04Z</time>
      </trkpt>
      <trkpt lat="43.44613" lon="6.26325">
        <ele>360.6</ele>
        <time>2019-12-11T13:56:18Z</time>
      </trkpt>
      <trkpt lat="43.44623" lon="6.26324">
        <ele>360.9</ele>
        <time>2019-12-11T13:56:31Z</time>
      </trkpt>
      <trkpt lat="43.44632" lon="6.26323">
        <ele>361.2</ele>
        <time>2019-12-11T13:56:42Z</time>
      </trkpt>
      <trkpt lat="43.44641" lon="6.26322">
        <ele>361.7</ele>
        <time>2019-12-11T13:56:52Z</time>
      </trkpt>
      <trkpt lat="43.4465" lon="6.26321">
        <ele>362</ele>
        <time>2019-12-11T13:57:04Z</time>
      </trkpt>
      <trkpt lat="43.4466" lon="6.26323">
        <ele>362.6</ele>
        <time>2019-12-11T13:57:17Z</time>
      </trkpt>
      <trkpt lat="43.44669" lon="6.26324">
        <ele>362.8</ele>
        <time>2019-12-11T13:57:27Z</time>
      </trkpt>
      <trkpt lat="43.44678" lon="6.26324">
        <ele>362.9</ele>
        <time>2019-12-11T13:57:35Z</time>
      </trkpt>
      <trkpt lat="43.44688" lon="6.26326">
        <ele>363</ele>
        <time>2019-12-11T13:57:43Z</time>
      </trkpt>
      <trkpt lat="43.44697" lon="6.26329">
        <ele>362.9</ele>
        <time>2019-12-11T13:57:51Z</time>
      </trkpt>
      <trkpt lat="43.44706" lon="6.26333">
        <ele>362.9</ele>
        <time>2019-12-11T13:58:00Z</time>
      </trkpt>
      <trkpt lat="43.44715" lon="6.26337">
        <ele>362.2</ele>
        <time>2019-12-11T13:58:09Z</time>
      </trkpt>
      <trkpt lat="43.44725" lon="6.26338">
        <ele>361.7</ele>
        <time>2019-12-11T13:58:17Z</time>
      </trkpt>
      <trkpt lat="43.44734" lon="6.26338">
        <ele>361.5</ele>
        <time>2019-12-11T13:58:25Z</time>
      </trkpt>
      <trkpt lat="43.44742" lon="6.26346">
        <ele>360.4</ele>
        <time>2019-12-11T13:58:37Z</time>
      </trkpt>
      <trkpt lat="43.44746" lon="6.26357">
        <ele>359.7</ele>
        <time>2019-12-11T13:58:47Z</time>
      </trkpt>
      <trkpt lat="43.44749" lon="6.2637">
        <ele>359.1</ele>
        <time>2019-12-11T13:58:57Z</time>
      </trkpt>
      <trkpt lat="43.44752" lon="6.26382">
        <ele>358.5</ele>
        <time>2019-12-11T13:59:06Z</time>
      </trkpt>
      <trkpt lat="43.44758" lon="6.26392">
        <ele>358.1</ele>
        <time>2019-12-11T13:59:15Z</time>
      </trkpt>
      <trkpt lat="43.44761" lon="6.26405">
        <ele>357.7</ele>
        <time>2019-12-11T13:59:24Z</time>
      </trkpt>
      <trkpt lat="43.44766" lon="6.26417">
        <ele>357.4</ele>
        <time>2019-12-11T13:59:33Z</time>
      </trkpt>
      <trkpt lat="43.4477" lon="6.26429">
        <ele>357.2</ele>
        <time>2019-12-11T13:59:42Z</time>
      </trkpt>
      <trkpt lat="43.44775" lon="6.2644">
        <ele>356.9</ele>
        <time>2019-12-11T13:59:51Z</time>
      </trkpt>
      <trkpt lat="43.4478" lon="6.26451">
        <ele>356.7</ele>
        <time>2019-12-11T14:00:00Z</time>
      </trkpt>
      <trkpt lat="43.44786" lon="6.26461">
        <ele>356.4</ele>
        <time>2019-12-11T14:00:09Z</time>
      </trkpt>
      <trkpt lat="43.44793" lon="6.2647">
        <ele>356</ele>
        <time>2019-12-11T14:00:18Z</time>
      </trkpt>
      <trkpt lat="43.44799" lon="6.2648">
        <ele>355.7</ele>
        <time>2019-12-11T14:00:27Z</time>
      </trkpt>
      <trkpt lat="43.44805" lon="6.2649">
        <ele>355.3</ele>
        <time>2019-12-11T14:00:38Z</time>
      </trkpt>
      <trkpt lat="43.44811" lon="6.26501">
        <ele>355.1</ele>
        <time>2019-12-11T14:00:47Z</time>
      </trkpt>
      <trkpt lat="43.44816" lon="6.26511">
        <ele>355</ele>
        <time>2019-12-11T14:00:55Z</time>
      </trkpt>
      <trkpt lat="43.44822" lon="6.26522">
        <ele>354.8</ele>
        <time>2019-12-11T14:01:03Z</time>
      </trkpt>
      <trkpt lat="43.44827" lon="6.26532">
        <ele>354.8</ele>
        <time>2019-12-11T14:01:11Z</time>
      </trkpt>
      <trkpt lat="43.44832" lon="6.26543">
        <ele>354.8</ele>
        <time>2019-12-11T14:01:19Z</time>
      </trkpt>
      <trkpt lat="43.44836" lon="6.26556">
        <ele>354.9</ele>
        <time>2019-12-11T14:01:28Z</time>
      </trkpt>
      <trkpt lat="43.44835" lon="6.26569">
        <ele>354.4</ele>
        <time>2019-12-11T14:01:38Z</time>
      </trkpt>
      <trkpt lat="43.44834" lon="6.26582">
        <ele>353.5</ele>
        <time>2019-12-11T14:01:51Z</time>
      </trkpt>
      <trkpt lat="43.44832" lon="6.26595">
        <ele>351.9</ele>
        <time>2019-12-11T14:02:07Z</time>
      </trkpt>
      <trkpt lat="43.44831" lon="6.26608">
        <ele>349.4</ele>
        <time>2019-12-11T14:02:26Z</time>
      </trkpt>
      <trkpt lat="43.4483" lon="6.2662">
        <ele>346.1</ele>
        <time>2019-12-11T14:02:52Z</time>
      </trkpt>
      <trkpt lat="43.4483" lon="6.26633">
        <ele>343.2</ele>
        <time>2019-12-11T14:03:21Z</time>
      </trkpt>
      <trkpt lat="43.44828" lon="6.26645">
        <ele>340.2</ele>
        <time>2019-12-11T14:04:10Z</time>
      </trkpt>
      <trkpt lat="43.44828" lon="6.26657">
        <ele>338.7</ele>
        <time>2019-12-11T14:04:31Z</time>
      </trkpt>
      <trkpt lat="43.44827" lon="6.2667">
        <ele>336.6</ele>
        <time>2019-12-11T14:04:51Z</time>
      </trkpt>
      <trkpt lat="43.44827" lon="6.26683">
        <ele>333.5</ele>
        <time>2019-12-11T14:05:15Z</time>
      </trkpt>
      <trkpt lat="43.44834" lon="6.26691">
        <ele>330.9</ele>
        <time>2019-12-11T14:05:34Z</time>
      </trkpt>
      <trkpt lat="43.44843" lon="6.26689">
        <ele>330</ele>
        <time>2019-12-11T14:05:43Z</time>
      </trkpt>
      <trkpt lat="43.44853" lon="6.26689">
        <ele>329.4</ele>
        <time>2019-12-11T14:05:52Z</time>
      </trkpt>
      <trkpt lat="43.44862" lon="6.26694">
        <ele>328.4</ele>
        <time>2019-12-11T14:06:03Z</time>
      </trkpt>
      <trkpt lat="43.44867" lon="6.26705">
        <ele>327.4</ele>
        <time>2019-12-11T14:06:14Z</time>
      </trkpt>
      <trkpt lat="43.44872" lon="6.26715">
        <ele>325.9</ele>
        <time>2019-12-11T14:06:28Z</time>
      </trkpt>
      <trkpt lat="43.44875" lon="6.26727">
        <ele>323.6</ele>
        <time>2019-12-11T14:06:44Z</time>
      </trkpt>
      <trkpt lat="43.4488" lon="6.26738">
        <ele>321.1</ele>
        <time>2019-12-11T14:06:58Z</time>
      </trkpt>
      <trkpt lat="43.44882" lon="6.26751">
        <ele>318.6</ele>
        <time>2019-12-11T14:07:11Z</time>
      </trkpt>
      <trkpt lat="43.44883" lon="6.26764">
        <ele>316.8</ele>
        <time>2019-12-11T14:07:22Z</time>
      </trkpt>
      <trkpt lat="43.44885" lon="6.26777">
        <ele>314.9</ele>
        <time>2019-12-11T14:07:34Z</time>
      </trkpt>
      <trkpt lat="43.44887" lon="6.26791">
        <ele>313.3</ele>
        <time>2019-12-11T14:07:43Z</time>
      </trkpt>
      <trkpt lat="43.44887" lon="6.26804">
        <ele>311.8</ele>
        <time>2019-12-11T14:07:52Z</time>
      </trkpt>
      <trkpt lat="43.44886" lon="6.26817">
        <ele>310.6</ele>
        <time>2019-12-11T14:08:01Z</time>
      </trkpt>
      <trkpt lat="43.44885" lon="6.2683">
        <ele>309.5</ele>
        <time>2019-12-11T14:08:10Z</time>
      </trkpt>
      <trkpt lat="43.44881" lon="6.26843">
        <ele>308.3</ele>
        <time>2019-12-11T14:08:19Z</time>
      </trkpt>
      <trkpt lat="43.44879" lon="6.26855">
        <ele>307.6</ele>
        <time>2019-12-11T14:08:27Z</time>
      </trkpt>
      <trkpt lat="43.4488" lon="6.26869">
        <ele>307.2</ele>
        <time>2019-12-11T14:08:36Z</time>
      </trkpt>
      <trkpt lat="43.44881" lon="6.26882">
        <ele>306.4</ele>
        <time>2019-12-11T14:08:45Z</time>
      </trkpt>
      <trkpt lat="43.44883" lon="6.26895">
        <ele>305.5</ele>
        <time>2019-12-11T14:08:55Z</time>
      </trkpt>
      <trkpt lat="43.44885" lon="6.26908">
        <ele>304.7</ele>
        <time>2019-12-11T14:09:04Z</time>
      </trkpt>
      <trkpt lat="43.44885" lon="6.26922">
        <ele>303.5</ele>
        <time>2019-12-11T14:09:13Z</time>
      </trkpt>
      <trkpt lat="43.44886" lon="6.26935">
        <ele>302.8</ele>
        <time>2019-12-11T14:09:21Z</time>
      </trkpt>
      <trkpt lat="43.44885" lon="6.26947">
        <ele>302.4</ele>
        <time>2019-12-11T14:09:29Z</time>
      </trkpt>
      <trkpt lat="43.44885" lon="6.26961">
        <ele>301.8</ele>
        <time>2019-12-11T14:09:37Z</time>
      </trkpt>
      <trkpt lat="43.44885" lon="6.26973">
        <ele>301.4</ele>
        <time>2019-12-11T14:09:45Z</time>
      </trkpt>
      <trkpt lat="43.44885" lon="6.26986">
        <ele>301</ele>
        <time>2019-12-11T14:09:53Z</time>
      </trkpt>
      <trkpt lat="43.44886" lon="6.26999">
        <ele>300.6</ele>
        <time>2019-12-11T14:10:01Z</time>
      </trkpt>
      <trkpt lat="43.44887" lon="6.27013">
        <ele>300.1</ele>
        <time>2019-12-11T14:10:09Z</time>
      </trkpt>
      <trkpt lat="43.44889" lon="6.27025">
        <ele>299.8</ele>
        <time>2019-12-11T14:10:16Z</time>
      </trkpt>
      <trkpt lat="43.44889" lon="6.27038">
        <ele>299.6</ele>
        <time>2019-12-11T14:10:24Z</time>
      </trkpt>
      <trkpt lat="43.44888" lon="6.27051">
        <ele>299.5</ele>
        <time>2019-12-11T14:10:32Z</time>
      </trkpt>
      <trkpt lat="43.44887" lon="6.27064">
        <ele>299.6</ele>
        <time>2019-12-11T14:10:41Z</time>
      </trkpt>
      <trkpt lat="43.44885" lon="6.27077">
        <ele>299.9</ele>
        <time>2019-12-11T14:10:49Z</time>
      </trkpt>
      <trkpt lat="43.44883" lon="6.2709">
        <ele>300</ele>
        <time>2019-12-11T14:10:57Z</time>
      </trkpt>
      <trkpt lat="43.44882" lon="6.27103">
        <ele>300.1</ele>
        <time>2019-12-11T14:11:05Z</time>
      </trkpt>
      <trkpt lat="43.44881" lon="6.27116">
        <ele>300.1</ele>
        <time>2019-12-11T14:11:13Z</time>
      </trkpt>
      <trkpt lat="43.44883" lon="6.27129">
        <ele>300.1</ele>
        <time>2019-12-11T14:11:21Z</time>
      </trkpt>
      <trkpt lat="43.44885" lon="6.27141">
        <ele>300.1</ele>
        <time>2019-12-11T14:11:29Z</time>
      </trkpt>
      <trkpt lat="43.44887" lon="6.27153">
        <ele>300.4</ele>
        <time>2019-12-11T14:11:37Z</time>
      </trkpt>
      <trkpt lat="43.4489" lon="6.27165">
        <ele>300.6</ele>
        <time>2019-12-11T14:11:45Z</time>
      </trkpt>
      <trkpt lat="43.44894" lon="6.27178">
        <ele>300.8</ele>
        <time>2019-12-11T14:11:54Z</time>
      </trkpt>
      <trkpt lat="43.44898" lon="6.2719">
        <ele>301.1</ele>
        <time>2019-12-11T14:12:02Z</time>
      </trkpt>
      <trkpt lat="43.44901" lon="6.27202">
        <ele>301.3</ele>
        <time>2019-12-11T14:12:10Z</time>
      </trkpt>
      <trkpt lat="43.44904" lon="6.27215">
        <ele>301.2</ele>
        <time>2019-12-11T14:12:18Z</time>
      </trkpt>
      <trkpt lat="43.44907" lon="6.27228">
        <ele>301.3</ele>
        <time>2019-12-11T14:12:26Z</time>
      </trkpt>
      <trkpt lat="43.44909" lon="6.27241">
        <ele>301.3</ele>
        <time>2019-12-11T14:12:34Z</time>
      </trkpt>
      <trkpt lat="43.44911" lon="6.27254">
        <ele>301.1</ele>
        <time>2019-12-11T14:12:42Z</time>
      </trkpt>
      <trkpt lat="43.44915" lon="6.27267">
        <ele>300.8</ele>
        <time>2019-12-11T14:12:50Z</time>
      </trkpt>
      <trkpt lat="43.44918" lon="6.27279">
        <ele>300.5</ele>
        <time>2019-12-11T14:12:58Z</time>
      </trkpt>
      <trkpt lat="43.44922" lon="6.27292">
        <ele>300.1</ele>
        <time>2019-12-11T14:13:06Z</time>
      </trkpt>
      <trkpt lat="43.44925" lon="6.27304">
        <ele>299.5</ele>
        <time>2019-12-11T14:13:14Z</time>
      </trkpt>
      <trkpt lat="43.44927" lon="6.27317">
        <ele>299.1</ele>
        <time>2019-12-11T14:13:21Z</time>
      </trkpt>
      <trkpt lat="43.44927" lon="6.27329">
        <ele>298.7</ele>
        <time>2019-12-11T14:13:28Z</time>
      </trkpt>
      <trkpt lat="43.44927" lon="6.27342">
        <ele>298.5</ele>
        <time>2019-12-11T14:13:36Z</time>
      </trkpt>
      <trkpt lat="43.44926" lon="6.27356">
        <ele>298.3</ele>
        <time>2019-12-11T14:13:44Z</time>
      </trkpt>
      <trkpt lat="43.44926" lon="6.27369">
        <ele>298.2</ele>
        <time>2019-12-11T14:13:52Z</time>
      </trkpt>
      <trkpt lat="43.44925" lon="6.27382">
        <ele>298.1</ele>
        <time>2019-12-11T14:14:00Z</time>
      </trkpt>
      <trkpt lat="43.44921" lon="6.27395">
        <ele>297.7</ele>
        <time>2019-12-11T14:14:08Z</time>
      </trkpt>
      <trkpt lat="43.44917" lon="6.27408">
        <ele>297.2</ele>
        <time>2019-12-11T14:14:16Z</time>
      </trkpt>
      <trkpt lat="43.44913" lon="6.27421">
        <ele>296.9</ele>
        <time>2019-12-11T14:14:24Z</time>
      </trkpt>
      <trkpt lat="43.44909" lon="6.27433">
        <ele>296.7</ele>
        <time>2019-12-11T14:14:32Z</time>
      </trkpt>
      <trkpt lat="43.44906" lon="6.27446">
        <ele>296.7</ele>
        <time>2019-12-11T14:14:40Z</time>
      </trkpt>
      <trkpt lat="43.44904" lon="6.27458">
        <ele>297</ele>
        <time>2019-12-11T14:14:48Z</time>
      </trkpt>
      <trkpt lat="43.44902" lon="6.2747">
        <ele>297.3</ele>
        <time>2019-12-11T14:14:56Z</time>
      </trkpt>
      <trkpt lat="43.44902" lon="6.27484">
        <ele>297.8</ele>
        <time>2019-12-11T14:15:05Z</time>
      </trkpt>
      <trkpt lat="43.44903" lon="6.27497">
        <ele>298.3</ele>
        <time>2019-12-11T14:15:13Z</time>
      </trkpt>
      <trkpt lat="43.44905" lon="6.2751">
        <ele>299</ele>
        <time>2019-12-11T14:15:22Z</time>
      </trkpt>
      <trkpt lat="43.44907" lon="6.27523">
        <ele>300.1</ele>
        <time>2019-12-11T14:15:32Z</time>
      </trkpt>
      <trkpt lat="43.44909" lon="6.27537">
        <ele>301.5</ele>
        <time>2019-12-11T14:15:42Z</time>
      </trkpt>
      <trkpt lat="43.44915" lon="6.27546">
        <ele>302.6</ele>
        <time>2019-12-11T14:15:51Z</time>
      </trkpt>
      <trkpt lat="43.44924" lon="6.27549">
        <ele>303.5</ele>
        <time>2019-12-11T14:16:00Z</time>
      </trkpt>
      <trkpt lat="43.44934" lon="6.27549">
        <ele>304.4</ele>
        <time>2019-12-11T14:16:09Z</time>
      </trkpt>
      <trkpt lat="43.44943" lon="6.27552">
        <ele>305.1</ele>
        <time>2019-12-11T14:16:18Z</time>
      </trkpt>
      <trkpt lat="43.44952" lon="6.27554">
        <ele>305.9</ele>
        <time>2019-12-11T14:16:27Z</time>
      </trkpt>
      <trkpt lat="43.44961" lon="6.27559">
        <ele>306.6</ele>
        <time>2019-12-11T14:16:36Z</time>
      </trkpt>
      <trkpt lat="43.44971" lon="6.27564">
        <ele>307.1</ele>
        <time>2019-12-11T14:16:45Z</time>
      </trkpt>
      <trkpt lat="43.44979" lon="6.2757">
        <ele>307.5</ele>
        <time>2019-12-11T14:16:54Z</time>
      </trkpt>
      <trkpt lat="43.44986" lon="6.27578">
        <ele>307.8</ele>
        <time>2019-12-11T14:17:04Z</time>
      </trkpt>
      <trkpt lat="43.44993" lon="6.27588">
        <ele>307.6</ele>
        <time>2019-12-11T14:17:13Z</time>
      </trkpt>
      <trkpt lat="43.45" lon="6.27597">
        <ele>306.7</ele>
        <time>2019-12-11T14:17:23Z</time>
      </trkpt>
      <trkpt lat="43.45007" lon="6.27606">
        <ele>305.7</ele>
        <time>2019-12-11T14:17:32Z</time>
      </trkpt>
      <trkpt lat="43.45013" lon="6.27616">
        <ele>305</ele>
        <time>2019-12-11T14:17:40Z</time>
      </trkpt>
      <trkpt lat="43.4502" lon="6.27625">
        <ele>304.5</ele>
        <time>2019-12-11T14:17:48Z</time>
      </trkpt>
      <trkpt lat="43.45027" lon="6.27635">
        <ele>304.1</ele>
        <time>2019-12-11T14:17:57Z</time>
      </trkpt>
      <trkpt lat="43.45032" lon="6.27645">
        <ele>303.6</ele>
        <time>2019-12-11T14:18:05Z</time>
      </trkpt>
      <trkpt lat="43.45037" lon="6.27656">
        <ele>303.3</ele>
        <time>2019-12-11T14:18:13Z</time>
      </trkpt>
      <trkpt lat="43.45039" lon="6.27669">
        <ele>303.2</ele>
        <time>2019-12-11T14:18:21Z</time>
      </trkpt>
      <trkpt lat="43.45038" lon="6.27683">
        <ele>303</ele>
        <time>2019-12-11T14:18:29Z</time>
      </trkpt>
      <trkpt lat="43.45036" lon="6.27695">
        <ele>302.7</ele>
        <time>2019-12-11T14:18:37Z</time>
      </trkpt>
      <trkpt lat="43.45034" lon="6.27709">
        <ele>302.2</ele>
        <time>2019-12-11T14:18:46Z</time>
      </trkpt>
      <trkpt lat="43.4503" lon="6.2772">
        <ele>301.6</ele>
        <time>2019-12-11T14:18:54Z</time>
      </trkpt>
      <trkpt lat="43.45026" lon="6.27731">
        <ele>300.5</ele>
        <time>2019-12-11T14:19:02Z</time>
      </trkpt>
      <trkpt lat="43.45023" lon="6.27745">
        <ele>299.8</ele>
        <time>2019-12-11T14:19:10Z</time>
      </trkpt>
      <trkpt lat="43.45023" lon="6.27758">
        <ele>299</ele>
        <time>2019-12-11T14:19:18Z</time>
      </trkpt>
      <trkpt lat="43.45023" lon="6.27771">
        <ele>298.4</ele>
        <time>2019-12-11T14:19:25Z</time>
      </trkpt>
      <trkpt lat="43.45023" lon="6.27784">
        <ele>297.6</ele>
        <time>2019-12-11T14:19:33Z</time>
      </trkpt>
      <trkpt lat="43.45024" lon="6.27798">
        <ele>296.8</ele>
        <time>2019-12-11T14:19:41Z</time>
      </trkpt>
      <trkpt lat="43.45024" lon="6.27811">
        <ele>296.1</ele>
        <time>2019-12-11T14:19:49Z</time>
      </trkpt>
      <trkpt lat="43.45026" lon="6.27824">
        <ele>294.9</ele>
        <time>2019-12-11T14:19:57Z</time>
      </trkpt>
      <trkpt lat="43.45028" lon="6.27837">
        <ele>294.2</ele>
        <time>2019-12-11T14:20:05Z</time>
      </trkpt>
      <trkpt lat="43.4503" lon="6.27849">
        <ele>293.4</ele>
        <time>2019-12-11T14:20:14Z</time>
      </trkpt>
      <trkpt lat="43.45034" lon="6.27861">
        <ele>292.2</ele>
        <time>2019-12-11T14:20:22Z</time>
      </trkpt>
      <trkpt lat="43.45038" lon="6.27874">
        <ele>291.1</ele>
        <time>2019-12-11T14:20:31Z</time>
      </trkpt>
      <trkpt lat="43.45042" lon="6.27885">
        <ele>290</ele>
        <time>2019-12-11T14:20:41Z</time>
      </trkpt>
      <trkpt lat="43.45044" lon="6.27898">
        <ele>288.2</ele>
        <time>2019-12-11T14:20:51Z</time>
      </trkpt>
      <trkpt lat="43.45049" lon="6.27909">
        <ele>286.9</ele>
        <time>2019-12-11T14:21:00Z</time>
      </trkpt>
      <trkpt lat="43.45051" lon="6.27922">
        <ele>285.4</ele>
        <time>2019-12-11T14:21:10Z</time>
      </trkpt>
      <trkpt lat="43.45051" lon="6.27934">
        <ele>284.4</ele>
        <time>2019-12-11T14:21:19Z</time>
      </trkpt>
      <trkpt lat="43.45051" lon="6.27947">
        <ele>283.8</ele>
        <time>2019-12-11T14:21:28Z</time>
      </trkpt>
      <trkpt lat="43.4505" lon="6.27961">
        <ele>282.9</ele>
        <time>2019-12-11T14:21:37Z</time>
      </trkpt>
      <trkpt lat="43.45049" lon="6.27974">
        <ele>282</ele>
        <time>2019-12-11T14:21:47Z</time>
      </trkpt>
      <trkpt lat="43.45048" lon="6.27986">
        <ele>281</ele>
        <time>2019-12-11T14:21:56Z</time>
      </trkpt>
      <trkpt lat="43.45048" lon="6.27999">
        <ele>280.1</ele>
        <time>2019-12-11T14:22:06Z</time>
      </trkpt>
      <trkpt lat="43.45049" lon="6.28012">
        <ele>279.3</ele>
        <time>2019-12-11T14:22:15Z</time>
      </trkpt>
      <trkpt lat="43.45049" lon="6.28025">
        <ele>278.5</ele>
        <time>2019-12-11T14:22:24Z</time>
      </trkpt>
      <trkpt lat="43.45048" lon="6.28038">
        <ele>277.5</ele>
        <time>2019-12-11T14:22:32Z</time>
      </trkpt>
      <trkpt lat="43.4505" lon="6.28051">
        <ele>276.4</ele>
        <time>2019-12-11T14:22:41Z</time>
      </trkpt>
      <trkpt lat="43.4505" lon="6.28065">
        <ele>275.5</ele>
        <time>2019-12-11T14:22:50Z</time>
      </trkpt>
      <trkpt lat="43.4505" lon="6.28078">
        <ele>274.5</ele>
        <time>2019-12-11T14:22:59Z</time>
      </trkpt>
      <trkpt lat="43.45051" lon="6.28091">
        <ele>273.4</ele>
        <time>2019-12-11T14:23:08Z</time>
      </trkpt>
      <trkpt lat="43.45051" lon="6.28104">
        <ele>272.6</ele>
        <time>2019-12-11T14:23:18Z</time>
      </trkpt>
      <trkpt lat="43.45051" lon="6.28117">
        <ele>271.9</ele>
        <time>2019-12-11T14:23:27Z</time>
      </trkpt>
      <trkpt lat="43.4505" lon="6.2813">
        <ele>271.5</ele>
        <time>2019-12-11T14:23:36Z</time>
      </trkpt>
      <trkpt lat="43.4505" lon="6.28143">
        <ele>271.1</ele>
        <time>2019-12-11T14:23:44Z</time>
      </trkpt>
      <trkpt lat="43.45049" lon="6.28156">
        <ele>270.5</ele>
        <time>2019-12-11T14:23:53Z</time>
      </trkpt>
      <trkpt lat="43.45048" lon="6.28168">
        <ele>269.8</ele>
        <time>2019-12-11T14:24:02Z</time>
      </trkpt>
      <trkpt lat="43.4505" lon="6.28181">
        <ele>269</ele>
        <time>2019-12-11T14:24:11Z</time>
      </trkpt>
      <trkpt lat="43.45052" lon="6.28194">
        <ele>268</ele>
        <time>2019-12-11T14:24:21Z</time>
      </trkpt>
      <trkpt lat="43.45058" lon="6.28205">
        <ele>267.1</ele>
        <time>2019-12-11T14:24:31Z</time>
      </trkpt>
      <trkpt lat="43.45063" lon="6.28215">
        <ele>266.2</ele>
        <time>2019-12-11T14:24:40Z</time>
      </trkpt>
      <trkpt lat="43.4507" lon="6.28225">
        <ele>265.1</ele>
        <time>2019-12-11T14:24:51Z</time>
      </trkpt>
      <trkpt lat="43.45078" lon="6.28234">
        <ele>263.7</ele>
        <time>2019-12-11T14:25:02Z</time>
      </trkpt>
      <trkpt lat="43.45086" lon="6.28242">
        <ele>262.7</ele>
        <time>2019-12-11T14:25:11Z</time>
      </trkpt>
      <trkpt lat="43.45095" lon="6.28246">
        <ele>261.6</ele>
        <time>2019-12-11T14:25:20Z</time>
      </trkpt>
      <trkpt lat="43.45105" lon="6.28248">
        <ele>260.4</ele>
        <time>2019-12-11T14:25:29Z</time>
      </trkpt>
      <trkpt lat="43.45114" lon="6.28248">
        <ele>259.2</ele>
        <time>2019-12-11T14:25:37Z</time>
      </trkpt>
      <trkpt lat="43.45123" lon="6.28243">
        <ele>258.2</ele>
        <time>2019-12-11T14:25:46Z</time>
      </trkpt>
      <trkpt lat="43.45132" lon="6.28244">
        <ele>255.9</ele>
        <time>2019-12-11T14:27:46Z</time>
      </trkpt>
      <trkpt lat="43.45136" lon="6.28256">
        <ele>255.5</ele>
        <time>2019-12-11T14:28:39Z</time>
      </trkpt>
      <trkpt lat="43.45134" lon="6.2827">
        <ele>255.5</ele>
        <time>2019-12-11T14:28:48Z</time>
      </trkpt>
      <trkpt lat="43.45133" lon="6.28283">
        <ele>255.5</ele>
        <time>2019-12-11T14:28:57Z</time>
      </trkpt>
      <trkpt lat="43.45133" lon="6.28296">
        <ele>255.5</ele>
        <time>2019-12-11T14:29:05Z</time>
      </trkpt>
      <trkpt lat="43.45132" lon="6.28309">
        <ele>255.5</ele>
        <time>2019-12-11T14:29:14Z</time>
      </trkpt>
      <trkpt lat="43.45132" lon="6.28323">
        <ele>255.4</ele>
        <time>2019-12-11T14:29:23Z</time>
      </trkpt>
      <trkpt lat="43.45134" lon="6.28336">
        <ele>255.2</ele>
        <time>2019-12-11T14:29:33Z</time>
      </trkpt>
      <trkpt lat="43.45141" lon="6.28344">
        <ele>254.8</ele>
        <time>2019-12-11T14:29:42Z</time>
      </trkpt>
      <trkpt lat="43.45149" lon="6.28351">
        <ele>254.1</ele>
        <time>2019-12-11T14:29:53Z</time>
      </trkpt>
      <trkpt lat="43.45159" lon="6.28354">
        <ele>253.8</ele>
        <time>2019-12-11T14:30:02Z</time>
      </trkpt>
      <trkpt lat="43.45168" lon="6.28358">
        <ele>253.7</ele>
        <time>2019-12-11T14:30:10Z</time>
      </trkpt>
      <trkpt lat="43.45176" lon="6.28364">
        <ele>253.7</ele>
        <time>2019-12-11T14:30:19Z</time>
      </trkpt>
      <trkpt lat="43.45184" lon="6.28372">
        <ele>254</ele>
        <time>2019-12-11T14:30:28Z</time>
      </trkpt>
      <trkpt lat="43.4519" lon="6.28382">
        <ele>254.5</ele>
        <time>2019-12-11T14:30:37Z</time>
      </trkpt>
      <trkpt lat="43.45194" lon="6.28394">
        <ele>255</ele>
        <time>2019-12-11T14:30:46Z</time>
      </trkpt>
      <trkpt lat="43.45198" lon="6.28406">
        <ele>255.5</ele>
        <time>2019-12-11T14:30:55Z</time>
      </trkpt>
      <trkpt lat="43.45201" lon="6.28418">
        <ele>255.8</ele>
        <time>2019-12-11T14:31:03Z</time>
      </trkpt>
      <trkpt lat="43.45205" lon="6.2843">
        <ele>255.9</ele>
        <time>2019-12-11T14:31:12Z</time>
      </trkpt>
      <trkpt lat="43.45209" lon="6.28441">
        <ele>255.9</ele>
        <time>2019-12-11T14:31:20Z</time>
      </trkpt>
      <trkpt lat="43.45214" lon="6.28453">
        <ele>256</ele>
        <time>2019-12-11T14:31:29Z</time>
      </trkpt>
      <trkpt lat="43.4522" lon="6.28463">
        <ele>256</ele>
        <time>2019-12-11T14:31:38Z</time>
      </trkpt>
      <trkpt lat="43.45227" lon="6.2847">
        <ele>255.8</ele>
        <time>2019-12-11T14:31:47Z</time>
      </trkpt>
      <trkpt lat="43.45235" lon="6.28477">
        <ele>255.7</ele>
        <time>2019-12-11T14:31:55Z</time>
      </trkpt>
      <trkpt lat="43.45243" lon="6.28484">
        <ele>255.2</ele>
        <time>2019-12-11T14:32:04Z</time>
      </trkpt>
      <trkpt lat="43.4525" lon="6.28491">
        <ele>254.8</ele>
        <time>2019-12-11T14:32:11Z</time>
      </trkpt>
      <trkpt lat="43.45258" lon="6.28499">
        <ele>254.3</ele>
        <time>2019-12-11T14:32:19Z</time>
      </trkpt>
      <trkpt lat="43.45265" lon="6.28505">
        <ele>253.8</ele>
        <time>2019-12-11T14:32:27Z</time>
      </trkpt>
      <trkpt lat="43.45274" lon="6.2851">
        <ele>253.3</ele>
        <time>2019-12-11T14:32:35Z</time>
      </trkpt>
      <trkpt lat="43.45283" lon="6.28515">
        <ele>253</ele>
        <time>2019-12-11T14:32:43Z</time>
      </trkpt>
      <trkpt lat="43.45292" lon="6.28519">
        <ele>252.8</ele>
        <time>2019-12-11T14:32:52Z</time>
      </trkpt>
      <trkpt lat="43.45301" lon="6.28522">
        <ele>252.4</ele>
        <time>2019-12-11T14:33:00Z</time>
      </trkpt>
      <trkpt lat="43.45311" lon="6.2852">
        <ele>252.1</ele>
        <time>2019-12-11T14:33:09Z</time>
      </trkpt>
      <trkpt lat="43.4532" lon="6.28514">
        <ele>251.6</ele>
        <time>2019-12-11T14:33:18Z</time>
      </trkpt>
      <trkpt lat="43.45328" lon="6.28507">
        <ele>250.8</ele>
        <time>2019-12-11T14:33:27Z</time>
      </trkpt>
      <trkpt lat="43.45336" lon="6.28498">
        <ele>250.1</ele>
        <time>2019-12-11T14:33:36Z</time>
      </trkpt>
      <trkpt lat="43.45343" lon="6.28489">
        <ele>249.7</ele>
        <time>2019-12-11T14:33:45Z</time>
      </trkpt>
      <trkpt lat="43.45352" lon="6.28485">
        <ele>249.3</ele>
        <time>2019-12-11T14:33:54Z</time>
      </trkpt>
      <trkpt lat="43.45361" lon="6.2849">
        <ele>248.8</ele>
        <time>2019-12-11T14:34:04Z</time>
      </trkpt>
      <trkpt lat="43.45364" lon="6.28503">
        <ele>248.4</ele>
        <time>2019-12-11T14:34:13Z</time>
      </trkpt>
      <trkpt lat="43.45364" lon="6.28516">
        <ele>247.9</ele>
        <time>2019-12-11T14:34:22Z</time>
      </trkpt>
      <trkpt lat="43.45366" lon="6.2853">
        <ele>247.6</ele>
        <time>2019-12-11T14:34:31Z</time>
      </trkpt>
      <trkpt lat="43.45367" lon="6.28543">
        <ele>247.5</ele>
        <time>2019-12-11T14:34:39Z</time>
      </trkpt>
      <trkpt lat="43.45369" lon="6.28556">
        <ele>247.4</ele>
        <time>2019-12-11T14:34:48Z</time>
      </trkpt>
      <trkpt lat="43.45371" lon="6.28568">
        <ele>247.3</ele>
        <time>2019-12-11T14:34:56Z</time>
      </trkpt>
      <trkpt lat="43.45373" lon="6.2858">
        <ele>246.5</ele>
        <time>2019-12-11T14:35:04Z</time>
      </trkpt>
      <trkpt lat="43.45379" lon="6.28591">
        <ele>246</ele>
        <time>2019-12-11T14:35:13Z</time>
      </trkpt>
      <trkpt lat="43.45384" lon="6.28602">
        <ele>245.7</ele>
        <time>2019-12-11T14:35:22Z</time>
      </trkpt>
      <trkpt lat="43.4539" lon="6.28612">
        <ele>245.6</ele>
        <time>2019-12-11T14:35:30Z</time>
      </trkpt>
      <trkpt lat="43.45394" lon="6.28625">
        <ele>245.5</ele>
        <time>2019-12-11T14:35:39Z</time>
      </trkpt>
      <trkpt lat="43.45399" lon="6.28636">
        <ele>245.4</ele>
        <time>2019-12-11T14:35:46Z</time>
      </trkpt>
      <trkpt lat="43.45402" lon="6.2865">
        <ele>245.3</ele>
        <time>2019-12-11T14:35:54Z</time>
      </trkpt>
      <trkpt lat="43.45405" lon="6.28662">
        <ele>245.4</ele>
        <time>2019-12-11T14:36:01Z</time>
      </trkpt>
      <trkpt lat="43.45407" lon="6.28675">
        <ele>245.4</ele>
        <time>2019-12-11T14:36:08Z</time>
      </trkpt>
      <trkpt lat="43.45407" lon="6.28687">
        <ele>245.4</ele>
        <time>2019-12-11T14:36:16Z</time>
      </trkpt>
      <trkpt lat="43.45409" lon="6.28701">
        <ele>245.5</ele>
        <time>2019-12-11T14:36:25Z</time>
      </trkpt>
      <trkpt lat="43.4541" lon="6.28713">
        <ele>245.5</ele>
        <time>2019-12-11T14:36:33Z</time>
      </trkpt>
      <trkpt lat="43.45411" lon="6.28726">
        <ele>245.5</ele>
        <time>2019-12-11T14:36:42Z</time>
      </trkpt>
      <trkpt lat="43.45412" lon="6.28739">
        <ele>245.9</ele>
        <time>2019-12-11T14:36:51Z</time>
      </trkpt>
      <trkpt lat="43.45413" lon="6.28752">
        <ele>246.1</ele>
        <time>2019-12-11T14:37:00Z</time>
      </trkpt>
      <trkpt lat="43.45414" lon="6.28765">
        <ele>246.2</ele>
        <time>2019-12-11T14:37:09Z</time>
      </trkpt>
      <trkpt lat="43.45418" lon="6.28777">
        <ele>246.3</ele>
        <time>2019-12-11T14:37:18Z</time>
      </trkpt>
      <trkpt lat="43.45424" lon="6.28787">
        <ele>246.3</ele>
        <time>2019-12-11T14:37:28Z</time>
      </trkpt>
      <trkpt lat="43.45432" lon="6.28793">
        <ele>246.2</ele>
        <time>2019-12-11T14:37:37Z</time>
      </trkpt>
      <trkpt lat="43.45441" lon="6.28798">
        <ele>245.3</ele>
        <time>2019-12-11T14:37:50Z</time>
      </trkpt>
      <trkpt lat="43.45449" lon="6.28804">
        <ele>244.3</ele>
        <time>2019-12-11T14:38:00Z</time>
      </trkpt>
      <trkpt lat="43.45459" lon="6.28807">
        <ele>243.4</ele>
        <time>2019-12-11T14:38:10Z</time>
      </trkpt>
      <trkpt lat="43.45468" lon="6.28807">
        <ele>242.2</ele>
        <time>2019-12-11T14:38:19Z</time>
      </trkpt>
      <trkpt lat="43.45478" lon="6.28804">
        <ele>241.3</ele>
        <time>2019-12-11T14:38:27Z</time>
      </trkpt>
      <trkpt lat="43.45488" lon="6.28806">
        <ele>240.5</ele>
        <time>2019-12-11T14:38:36Z</time>
      </trkpt>
      <trkpt lat="43.45497" lon="6.2881">
        <ele>239.3</ele>
        <time>2019-12-11T14:38:46Z</time>
      </trkpt>
      <trkpt lat="43.45506" lon="6.28813">
        <ele>237.7</ele>
        <time>2019-12-11T14:38:56Z</time>
      </trkpt>
      <trkpt lat="43.45516" lon="6.28814">
        <ele>236.4</ele>
        <time>2019-12-11T14:39:06Z</time>
      </trkpt>
      <trkpt lat="43.45526" lon="6.28813">
        <ele>235.2</ele>
        <time>2019-12-11T14:39:15Z</time>
      </trkpt>
      <trkpt lat="43.45535" lon="6.2881">
        <ele>233.7</ele>
        <time>2019-12-11T14:39:25Z</time>
      </trkpt>
      <trkpt lat="43.45542" lon="6.28801">
        <ele>232.4</ele>
        <time>2019-12-11T14:39:35Z</time>
      </trkpt>
      <trkpt lat="43.45546" lon="6.28789">
        <ele>231.3</ele>
        <time>2019-12-11T14:39:45Z</time>
      </trkpt>
      <trkpt lat="43.45553" lon="6.2878">
        <ele>230.3</ele>
        <time>2019-12-11T14:39:57Z</time>
      </trkpt>
      <trkpt lat="43.45559" lon="6.28771">
        <ele>229.7</ele>
        <time>2019-12-11T14:40:04Z</time>
      </trkpt>
      <trkpt lat="43.45567" lon="6.28763">
        <ele>228.9</ele>
        <time>2019-12-11T14:40:13Z</time>
      </trkpt>
      <trkpt lat="43.45574" lon="6.28755">
        <ele>228.2</ele>
        <time>2019-12-11T14:40:20Z</time>
      </trkpt>
      <trkpt lat="43.45582" lon="6.28748">
        <ele>227.3</ele>
        <time>2019-12-11T14:40:27Z</time>
      </trkpt>
      <trkpt lat="43.4559" lon="6.28741">
        <ele>226.6</ele>
        <time>2019-12-11T14:40:34Z</time>
      </trkpt>
      <trkpt lat="43.45599" lon="6.28739">
        <ele>226.1</ele>
        <time>2019-12-11T14:40:43Z</time>
      </trkpt>
      <trkpt lat="43.45608" lon="6.28736">
        <ele>225.7</ele>
        <time>2019-12-11T14:40:51Z</time>
      </trkpt>
      <trkpt lat="43.45617" lon="6.28734">
        <ele>225.3</ele>
        <time>2019-12-11T14:40:59Z</time>
      </trkpt>
      <trkpt lat="43.45626" lon="6.2873">
        <ele>225.1</ele>
        <time>2019-12-11T14:41:09Z</time>
      </trkpt>
      <trkpt lat="43.45635" lon="6.28725">
        <ele>224.5</ele>
        <time>2019-12-11T14:41:17Z</time>
      </trkpt>
      <trkpt lat="43.45644" lon="6.28719">
        <ele>224.2</ele>
        <time>2019-12-11T14:41:26Z</time>
      </trkpt>
      <trkpt lat="43.45653" lon="6.28716">
        <ele>223.8</ele>
        <time>2019-12-11T14:41:36Z</time>
      </trkpt>
      <trkpt lat="43.45662" lon="6.2872">
        <ele>222.8</ele>
        <time>2019-12-11T14:41:47Z</time>
      </trkpt>
      <trkpt lat="43.45672" lon="6.28724">
        <ele>221.9</ele>
        <time>2019-12-11T14:41:56Z</time>
      </trkpt>
      <trkpt lat="43.45681" lon="6.28726">
        <ele>220.9</ele>
        <time>2019-12-11T14:42:05Z</time>
      </trkpt>
      <trkpt lat="43.45691" lon="6.28729">
        <ele>220.2</ele>
        <time>2019-12-11T14:42:14Z</time>
      </trkpt>
      <trkpt lat="43.457" lon="6.28732">
        <ele>219.3</ele>
        <time>2019-12-11T14:42:25Z</time>
      </trkpt>
      <trkpt lat="43.45709" lon="6.28735">
        <ele>218.9</ele>
        <time>2019-12-11T14:42:35Z</time>
      </trkpt>
      <trkpt lat="43.45718" lon="6.28742">
        <ele>218.1</ele>
        <time>2019-12-11T14:42:45Z</time>
      </trkpt>
      <trkpt lat="43.45725" lon="6.28751">
        <ele>217.2</ele>
        <time>2019-12-11T14:42:54Z</time>
      </trkpt>
      <trkpt lat="43.45735" lon="6.28755">
        <ele>216.6</ele>
        <time>2019-12-11T14:43:03Z</time>
      </trkpt>
      <trkpt lat="43.45744" lon="6.28758">
        <ele>215.7</ele>
        <time>2019-12-11T14:43:12Z</time>
      </trkpt>
      <trkpt lat="43.45753" lon="6.28759">
        <ele>215</ele>
        <time>2019-12-11T14:43:23Z</time>
      </trkpt>
      <trkpt lat="43.45763" lon="6.28761">
        <ele>214.8</ele>
        <time>2019-12-11T14:43:32Z</time>
      </trkpt>
      <trkpt lat="43.45771" lon="6.28767">
        <ele>214.7</ele>
        <time>2019-12-11T14:43:41Z</time>
      </trkpt>
      <trkpt lat="43.45781" lon="6.28771">
        <ele>214.6</ele>
        <time>2019-12-11T14:43:51Z</time>
      </trkpt>
      <trkpt lat="43.4579" lon="6.28769">
        <ele>214.3</ele>
        <time>2019-12-11T14:45:52Z</time>
      </trkpt>
      <trkpt lat="43.45791" lon="6.28757">
        <ele>214.3</ele>
        <time>2019-12-11T14:46:02Z</time>
      </trkpt>
      <trkpt lat="43.45791" lon="6.28744">
        <ele>213.7</ele>
        <time>2019-12-11T14:46:19Z</time>
      </trkpt>
      <trkpt lat="43.45798" lon="6.28735">
        <ele>213.1</ele>
        <time>2019-12-11T14:46:33Z</time>
      </trkpt>
      <trkpt lat="43.458" lon="6.28723">
        <ele>212.5</ele>
        <time>2019-12-11T14:46:49Z</time>
      </trkpt>
      <trkpt lat="43.45802" lon="6.2871">
        <ele>211.9</ele>
        <time>2019-12-11T14:47:05Z</time>
      </trkpt>
      <trkpt lat="43.45803" lon="6.28698">
        <ele>210.9</ele>
        <time>2019-12-11T14:47:20Z</time>
      </trkpt>
      <trkpt lat="43.45803" lon="6.28685">
        <ele>210.2</ele>
        <time>2019-12-11T14:47:34Z</time>
      </trkpt>
      <trkpt lat="43.45804" lon="6.28672">
        <ele>210</ele>
        <time>2019-12-11T14:47:45Z</time>
      </trkpt>
      <trkpt lat="43.45805" lon="6.28659">
        <ele>209.9</ele>
        <time>2019-12-11T14:47:56Z</time>
      </trkpt>
      <trkpt lat="43.45808" lon="6.28647">
        <ele>209.8</ele>
        <time>2019-12-11T14:48:05Z</time>
      </trkpt>
      <trkpt lat="43.4581" lon="6.28634">
        <ele>209.6</ele>
        <time>2019-12-11T14:48:15Z</time>
      </trkpt>
      <trkpt lat="43.45813" lon="6.28621">
        <ele>209.7</ele>
        <time>2019-12-11T14:48:25Z</time>
      </trkpt>
      <trkpt lat="43.45816" lon="6.28609">
        <ele>209.7</ele>
        <time>2019-12-11T14:48:34Z</time>
      </trkpt>
      <trkpt lat="43.45819" lon="6.28596">
        <ele>209.8</ele>
        <time>2019-12-11T14:48:43Z</time>
      </trkpt>
      <trkpt lat="43.45823" lon="6.28585">
        <ele>209.9</ele>
        <time>2019-12-11T14:48:51Z</time>
      </trkpt>
      <trkpt lat="43.45829" lon="6.28573">
        <ele>210.2</ele>
        <time>2019-12-11T14:49:02Z</time>
      </trkpt>
      <trkpt lat="43.45835" lon="6.28562">
        <ele>210.2</ele>
        <time>2019-12-11T14:49:10Z</time>
      </trkpt>
      <trkpt lat="43.45839" lon="6.2855">
        <ele>210.3</ele>
        <time>2019-12-11T14:49:24Z</time>
      </trkpt>
      <trkpt lat="43.45844" lon="6.2854">
        <ele>210.1</ele>
        <time>2019-12-11T14:49:33Z</time>
      </trkpt>
      <trkpt lat="43.4585" lon="6.2853">
        <ele>210</ele>
        <time>2019-12-11T14:49:41Z</time>
      </trkpt>
      <trkpt lat="43.45857" lon="6.28521">
        <ele>210</ele>
        <time>2019-12-11T14:49:51Z</time>
      </trkpt>
      <trkpt lat="43.45864" lon="6.28512">
        <ele>209.9</ele>
        <time>2019-12-11T14:49:59Z</time>
      </trkpt>
      <trkpt lat="43.45871" lon="6.28503">
        <ele>209.6</ele>
        <time>2019-12-11T14:50:07Z</time>
      </trkpt>
      <trkpt lat="43.45877" lon="6.28491">
        <ele>209.3</ele>
        <time>2019-12-11T14:50:15Z</time>
      </trkpt>
      <trkpt lat="43.45883" lon="6.28481">
        <ele>209.1</ele>
        <time>2019-12-11T14:50:23Z</time>
      </trkpt>
      <trkpt lat="43.45888" lon="6.2847">
        <ele>208.8</ele>
        <time>2019-12-11T14:50:32Z</time>
      </trkpt>
      <trkpt lat="43.45893" lon="6.28458">
        <ele>208.5</ele>
        <time>2019-12-11T14:50:39Z</time>
      </trkpt>
      <trkpt lat="43.45899" lon="6.28448">
        <ele>208.3</ele>
        <time>2019-12-11T14:50:46Z</time>
      </trkpt>
      <trkpt lat="43.45905" lon="6.28436">
        <ele>207.9</ele>
        <time>2019-12-11T14:50:56Z</time>
      </trkpt>
      <trkpt lat="43.4591" lon="6.28426">
        <ele>207.5</ele>
        <time>2019-12-11T14:51:03Z</time>
      </trkpt>
      <trkpt lat="43.45914" lon="6.28414">
        <ele>207.2</ele>
        <time>2019-12-11T14:51:10Z</time>
      </trkpt>
      <trkpt lat="43.45919" lon="6.28403">
        <ele>207</ele>
        <time>2019-12-11T14:51:17Z</time>
      </trkpt>
      <trkpt lat="43.45922" lon="6.28391">
        <ele>206.8</ele>
        <time>2019-12-11T14:51:25Z</time>
      </trkpt>
      <trkpt lat="43.45926" lon="6.28379">
        <ele>206.4</ele>
        <time>2019-12-11T14:51:33Z</time>
      </trkpt>
      <trkpt lat="43.4593" lon="6.28367">
        <ele>206.2</ele>
        <time>2019-12-11T14:51:41Z</time>
      </trkpt>
      <trkpt lat="43.45935" lon="6.28357">
        <ele>205.9</ele>
        <time>2019-12-11T14:51:49Z</time>
      </trkpt>
      <trkpt lat="43.45941" lon="6.28347">
        <ele>205.4</ele>
        <time>2019-12-11T14:51:57Z</time>
      </trkpt>
      <trkpt lat="43.45948" lon="6.28336">
        <ele>205</ele>
        <time>2019-12-11T14:52:05Z</time>
      </trkpt>
      <trkpt lat="43.45954" lon="6.28326">
        <ele>204.8</ele>
        <time>2019-12-11T14:52:13Z</time>
      </trkpt>
      <trkpt lat="43.45959" lon="6.28316">
        <ele>204.7</ele>
        <time>2019-12-11T14:52:20Z</time>
      </trkpt>
      <trkpt lat="43.45965" lon="6.28305">
        <ele>204.6</ele>
        <time>2019-12-11T14:52:29Z</time>
      </trkpt>
      <trkpt lat="43.4597" lon="6.28294">
        <ele>204.2</ele>
        <time>2019-12-11T14:52:37Z</time>
      </trkpt>
      <trkpt lat="43.45975" lon="6.28282">
        <ele>203.8</ele>
        <time>2019-12-11T14:52:46Z</time>
      </trkpt>
      <trkpt lat="43.45979" lon="6.28271">
        <ele>203.5</ele>
        <time>2019-12-11T14:52:54Z</time>
      </trkpt>
      <trkpt lat="43.45983" lon="6.2826">
        <ele>203.4</ele>
        <time>2019-12-11T14:53:02Z</time>
      </trkpt>
      <trkpt lat="43.45986" lon="6.28247">
        <ele>203.3</ele>
        <time>2019-12-11T14:53:10Z</time>
      </trkpt>
      <trkpt lat="43.45988" lon="6.28235">
        <ele>202.8</ele>
        <time>2019-12-11T14:53:18Z</time>
      </trkpt>
      <trkpt lat="43.4599" lon="6.28222">
        <ele>202.3</ele>
        <time>2019-12-11T14:53:26Z</time>
      </trkpt>
      <trkpt lat="43.45992" lon="6.28209">
        <ele>202</ele>
        <time>2019-12-11T14:53:34Z</time>
      </trkpt>
      <trkpt lat="43.45992" lon="6.28196">
        <ele>201.8</ele>
        <time>2019-12-11T14:53:44Z</time>
      </trkpt>
      <trkpt lat="43.45995" lon="6.28184">
        <ele>201.9</ele>
        <time>2019-12-11T14:53:57Z</time>
      </trkpt>
      <trkpt lat="43.46" lon="6.28172">
        <ele>201.7</ele>
        <time>2019-12-11T14:54:13Z</time>
      </trkpt>
      <trkpt lat="43.46003" lon="6.28159">
        <ele>201</ele>
        <time>2019-12-11T14:54:21Z</time>
      </trkpt>
      <trkpt lat="43.46006" lon="6.28147">
        <ele>200.7</ele>
        <time>2019-12-11T14:54:29Z</time>
      </trkpt>
      <trkpt lat="43.46013" lon="6.28137">
        <ele>200.5</ele>
        <time>2019-12-11T14:54:37Z</time>
      </trkpt>
      <trkpt lat="43.46019" lon="6.28127">
        <ele>200.6</ele>
        <time>2019-12-11T14:54:45Z</time>
      </trkpt>
      <trkpt lat="43.46026" lon="6.28118">
        <ele>200</ele>
        <time>2019-12-11T14:56:04Z</time>
      </trkpt>
      <trkpt lat="43.46033" lon="6.28112">
        <ele>200.2</ele>
        <time>2019-12-11T14:56:18Z</time>
      </trkpt>
      <trkpt lat="43.46041" lon="6.28105">
        <ele>199</ele>
        <time>2019-12-11T14:56:30Z</time>
      </trkpt>
      <trkpt lat="43.4605" lon="6.281">
        <ele>197.9</ele>
        <time>2019-12-11T14:56:39Z</time>
      </trkpt>
      <trkpt lat="43.46057" lon="6.28091">
        <ele>197.1</ele>
        <time>2019-12-11T14:56:49Z</time>
      </trkpt>
      <trkpt lat="43.46064" lon="6.28082">
        <ele>196.1</ele>
        <time>2019-12-11T14:56:58Z</time>
      </trkpt>
      <trkpt lat="43.46073" lon="6.28078">
        <ele>195.5</ele>
        <time>2019-12-11T14:57:06Z</time>
      </trkpt>
      <trkpt lat="43.46078" lon="6.28066">
        <ele>195</ele>
        <time>2019-12-11T14:57:15Z</time>
      </trkpt>
      <trkpt lat="43.46081" lon="6.28054">
        <ele>194.6</ele>
        <time>2019-12-11T14:57:24Z</time>
      </trkpt>
      <trkpt lat="43.46085" lon="6.28042">
        <ele>194.1</ele>
        <time>2019-12-11T14:57:33Z</time>
      </trkpt>
      <trkpt lat="43.46089" lon="6.28029">
        <ele>193.2</ele>
        <time>2019-12-11T14:57:43Z</time>
      </trkpt>
      <trkpt lat="43.46092" lon="6.28017">
        <ele>192.4</ele>
        <time>2019-12-11T14:57:52Z</time>
      </trkpt>
      <trkpt lat="43.46094" lon="6.28005">
        <ele>192</ele>
        <time>2019-12-11T14:58:02Z</time>
      </trkpt>
      <trkpt lat="43.46095" lon="6.27991">
        <ele>191.6</ele>
        <time>2019-12-11T14:58:11Z</time>
      </trkpt>
      <trkpt lat="43.46099" lon="6.27979">
        <ele>190.9</ele>
        <time>2019-12-11T14:58:20Z</time>
      </trkpt>
      <trkpt lat="43.46106" lon="6.2797">
        <ele>190</ele>
        <time>2019-12-11T14:58:29Z</time>
      </trkpt>
      <trkpt lat="43.46112" lon="6.2796">
        <ele>189</ele>
        <time>2019-12-11T14:58:39Z</time>
      </trkpt>
      <trkpt lat="43.46117" lon="6.27949">
        <ele>188.2</ele>
        <time>2019-12-11T14:58:48Z</time>
      </trkpt>
      <trkpt lat="43.46121" lon="6.27938">
        <ele>187</ele>
        <time>2019-12-11T14:58:57Z</time>
      </trkpt>
      <trkpt lat="43.46128" lon="6.27927">
        <ele>186.8</ele>
        <time>2019-12-11T14:59:08Z</time>
      </trkpt>
      <trkpt lat="43.46136" lon="6.2792">
        <ele>186</ele>
        <time>2019-12-11T14:59:18Z</time>
      </trkpt>
      <trkpt lat="43.46142" lon="6.27911">
        <ele>185.2</ele>
        <time>2019-12-11T14:59:27Z</time>
      </trkpt>
      <trkpt lat="43.46149" lon="6.27901">
        <ele>185.1</ele>
        <time>2019-12-11T14:59:36Z</time>
      </trkpt>
      <trkpt lat="43.46156" lon="6.27893">
        <ele>185.2</ele>
        <time>2019-12-11T14:59:44Z</time>
      </trkpt>
      <trkpt lat="43.46164" lon="6.27887">
        <ele>185.4</ele>
        <time>2019-12-11T14:59:52Z</time>
      </trkpt>
      <trkpt lat="43.46171" lon="6.27878">
        <ele>185.5</ele>
        <time>2019-12-11T15:00:01Z</time>
      </trkpt>
      <trkpt lat="43.46175" lon="6.27865">
        <ele>185.5</ele>
        <time>2019-12-11T15:00:11Z</time>
      </trkpt>
      <trkpt lat="43.46178" lon="6.27852">
        <ele>186.2</ele>
        <time>2019-12-11T15:00:22Z</time>
      </trkpt>
      <trkpt lat="43.46181" lon="6.27839">
        <ele>187.1</ele>
        <time>2019-12-11T15:00:33Z</time>
      </trkpt>
      <trkpt lat="43.46185" lon="6.27826">
        <ele>187.9</ele>
        <time>2019-12-11T15:00:42Z</time>
      </trkpt>
      <trkpt lat="43.4619" lon="6.27814">
        <ele>189.1</ele>
        <time>2019-12-11T15:00:51Z</time>
      </trkpt>
      <trkpt lat="43.46194" lon="6.27802">
        <ele>190.3</ele>
        <time>2019-12-11T15:01:01Z</time>
      </trkpt>
      <trkpt lat="43.462" lon="6.27793">
        <ele>191.6</ele>
        <time>2019-12-11T15:01:11Z</time>
      </trkpt>
      <trkpt lat="43.46205" lon="6.27782">
        <ele>192.7</ele>
        <time>2019-12-11T15:01:21Z</time>
      </trkpt>
      <trkpt lat="43.46209" lon="6.27769">
        <ele>194</ele>
        <time>2019-12-11T15:01:31Z</time>
      </trkpt>
      <trkpt lat="43.46213" lon="6.27758">
        <ele>195.2</ele>
        <time>2019-12-11T15:01:39Z</time>
      </trkpt>
      <trkpt lat="43.46219" lon="6.27747">
        <ele>196</ele>
        <time>2019-12-11T15:01:48Z</time>
      </trkpt>
      <trkpt lat="43.46225" lon="6.27736">
        <ele>195.8</ele>
        <time>2019-12-11T15:01:57Z</time>
      </trkpt>
      <trkpt lat="43.46232" lon="6.27726">
        <ele>195.4</ele>
        <time>2019-12-11T15:02:06Z</time>
      </trkpt>
      <trkpt lat="43.46236" lon="6.27714">
        <ele>194.9</ele>
        <time>2019-12-11T15:02:14Z</time>
      </trkpt>
      <trkpt lat="43.46241" lon="6.27703">
        <ele>194.2</ele>
        <time>2019-12-11T15:02:22Z</time>
      </trkpt>
      <trkpt lat="43.46246" lon="6.27692">
        <ele>193.6</ele>
        <time>2019-12-11T15:02:30Z</time>
      </trkpt>
      <trkpt lat="43.4625" lon="6.27681">
        <ele>193</ele>
        <time>2019-12-11T15:02:38Z</time>
      </trkpt>
      <trkpt lat="43.46254" lon="6.2767">
        <ele>192.4</ele>
        <time>2019-12-11T15:02:46Z</time>
      </trkpt>
      <trkpt lat="43.46261" lon="6.27661">
        <ele>191.9</ele>
        <time>2019-12-11T15:02:54Z</time>
      </trkpt>
      <trkpt lat="43.46271" lon="6.27657">
        <ele>191.2</ele>
        <time>2019-12-11T15:03:03Z</time>
      </trkpt>
      <trkpt lat="43.4628" lon="6.27656">
        <ele>190.7</ele>
        <time>2019-12-11T15:03:12Z</time>
      </trkpt>
      <trkpt lat="43.46289" lon="6.27658">
        <ele>190.4</ele>
        <time>2019-12-11T15:03:21Z</time>
      </trkpt>
      <trkpt lat="43.46299" lon="6.2766">
        <ele>190.2</ele>
        <time>2019-12-11T15:03:30Z</time>
      </trkpt>
      <trkpt lat="43.46308" lon="6.27661">
        <ele>189.7</ele>
        <time>2019-12-11T15:03:39Z</time>
      </trkpt>
      <trkpt lat="43.46317" lon="6.27663">
        <ele>188.7</ele>
        <time>2019-12-11T15:03:48Z</time>
      </trkpt>
      <trkpt lat="43.46327" lon="6.27664">
        <ele>187.5</ele>
        <time>2019-12-11T15:03:56Z</time>
      </trkpt>
      <trkpt lat="43.46336" lon="6.2766">
        <ele>186.2</ele>
        <time>2019-12-11T15:04:04Z</time>
      </trkpt>
      <trkpt lat="43.46343" lon="6.27653">
        <ele>185.3</ele>
        <time>2019-12-11T15:04:12Z</time>
      </trkpt>
      <trkpt lat="43.4635" lon="6.27643">
        <ele>184.2</ele>
        <time>2019-12-11T15:04:21Z</time>
      </trkpt>
      <trkpt lat="43.46357" lon="6.27634">
        <ele>183.4</ele>
        <time>2019-12-11T15:04:29Z</time>
      </trkpt>
      <trkpt lat="43.46364" lon="6.27626">
        <ele>182.8</ele>
        <time>2019-12-11T15:04:36Z</time>
      </trkpt>
      <trkpt lat="43.46372" lon="6.27619">
        <ele>182.3</ele>
        <time>2019-12-11T15:04:44Z</time>
      </trkpt>
      <trkpt lat="43.4638" lon="6.27614">
        <ele>181.9</ele>
        <time>2019-12-11T15:04:51Z</time>
      </trkpt>
      <trkpt lat="43.46389" lon="6.27609">
        <ele>181</ele>
        <time>2019-12-11T15:04:59Z</time>
      </trkpt>
      <trkpt lat="43.46398" lon="6.27603">
        <ele>180.1</ele>
        <time>2019-12-11T15:05:07Z</time>
      </trkpt>
      <trkpt lat="43.46406" lon="6.27595">
        <ele>179</ele>
        <time>2019-12-11T15:05:15Z</time>
      </trkpt>
      <trkpt lat="43.46412" lon="6.27585">
        <ele>177.8</ele>
        <time>2019-12-11T15:05:23Z</time>
      </trkpt>
      <trkpt lat="43.46418" lon="6.27575">
        <ele>176.8</ele>
        <time>2019-12-11T15:05:31Z</time>
      </trkpt>
      <trkpt lat="43.46423" lon="6.27564">
        <ele>175.9</ele>
        <time>2019-12-11T15:05:39Z</time>
      </trkpt>
      <trkpt lat="43.46427" lon="6.27552">
        <ele>175.2</ele>
        <time>2019-12-11T15:05:48Z</time>
      </trkpt>
      <trkpt lat="43.46433" lon="6.27541">
        <ele>174.5</ele>
        <time>2019-12-11T15:05:57Z</time>
      </trkpt>
      <trkpt lat="43.46441" lon="6.27537">
        <ele>173.1</ele>
        <time>2019-12-11T15:06:08Z</time>
      </trkpt>
      <trkpt lat="43.4645" lon="6.27533">
        <ele>171.6</ele>
        <time>2019-12-11T15:06:19Z</time>
      </trkpt>
      <trkpt lat="43.46455" lon="6.27521">
        <ele>170.8</ele>
        <time>2019-12-11T15:06:27Z</time>
      </trkpt>
      <trkpt lat="43.4646" lon="6.27511">
        <ele>170.6</ele>
        <time>2019-12-11T15:06:35Z</time>
      </trkpt>
      <trkpt lat="43.46463" lon="6.27498">
        <ele>170.5</ele>
        <time>2019-12-11T15:06:44Z</time>
      </trkpt>
      <trkpt lat="43.46466" lon="6.27485">
        <ele>170.9</ele>
        <time>2019-12-11T15:06:53Z</time>
      </trkpt>
      <trkpt lat="43.46469" lon="6.27472">
        <ele>171.1</ele>
        <time>2019-12-11T15:07:01Z</time>
      </trkpt>
      <trkpt lat="43.46471" lon="6.27459">
        <ele>171.2</ele>
        <time>2019-12-11T15:07:09Z</time>
      </trkpt>
      <trkpt lat="43.46473" lon="6.27445">
        <ele>171.3</ele>
        <time>2019-12-11T15:07:17Z</time>
      </trkpt>
      <trkpt lat="43.46475" lon="6.27432">
        <ele>171.1</ele>
        <time>2019-12-11T15:07:25Z</time>
      </trkpt>
      <trkpt lat="43.46477" lon="6.27419">
        <ele>170.9</ele>
        <time>2019-12-11T15:07:33Z</time>
      </trkpt>
      <trkpt lat="43.4648" lon="6.27407">
        <ele>170.8</ele>
        <time>2019-12-11T15:07:41Z</time>
      </trkpt>
      <trkpt lat="43.46481" lon="6.27394">
        <ele>170.6</ele>
        <time>2019-12-11T15:07:49Z</time>
      </trkpt>
      <trkpt lat="43.46483" lon="6.2738">
        <ele>170.4</ele>
        <time>2019-12-11T15:07:57Z</time>
      </trkpt>
      <trkpt lat="43.46485" lon="6.27367">
        <ele>170.3</ele>
        <time>2019-12-11T15:08:05Z</time>
      </trkpt>
      <trkpt lat="43.46486" lon="6.27354">
        <ele>170.2</ele>
        <time>2019-12-11T15:08:12Z</time>
      </trkpt>
      <trkpt lat="43.46488" lon="6.27341">
        <ele>170.2</ele>
        <time>2019-12-11T15:08:20Z</time>
      </trkpt>
      <trkpt lat="43.4649" lon="6.27329">
        <ele>170.1</ele>
        <time>2019-12-11T15:08:28Z</time>
      </trkpt>
      <trkpt lat="43.46492" lon="6.27316">
        <ele>170.1</ele>
        <time>2019-12-11T15:08:36Z</time>
      </trkpt>
      <trkpt lat="43.46493" lon="6.27304">
        <ele>170.2</ele>
        <time>2019-12-11T15:08:44Z</time>
      </trkpt>
      <trkpt lat="43.46498" lon="6.27293">
        <ele>170.7</ele>
        <time>2019-12-11T15:09:31Z</time>
      </trkpt>
      <trkpt lat="43.46503" lon="6.27282">
        <ele>171.8</ele>
        <time>2019-12-11T15:10:20Z</time>
      </trkpt>
      <trkpt lat="43.465" lon="6.27269">
        <ele>172.2</ele>
        <time>2019-12-11T15:10:32Z</time>
      </trkpt>
      <trkpt lat="43.46499" lon="6.27256">
        <ele>172.7</ele>
        <time>2019-12-11T15:10:41Z</time>
      </trkpt>
      <trkpt lat="43.46497" lon="6.27243">
        <ele>173.4</ele>
        <time>2019-12-11T15:10:50Z</time>
      </trkpt>
      <trkpt lat="43.46496" lon="6.2723">
        <ele>174.3</ele>
        <time>2019-12-11T15:11:12Z</time>
      </trkpt>
      <trkpt lat="43.46493" lon="6.27218">
        <ele>175.6</ele>
        <time>2019-12-11T15:12:18Z</time>
      </trkpt>
      <trkpt lat="43.46484" lon="6.27212">
        <ele>176.8</ele>
        <time>2019-12-11T15:12:34Z</time>
      </trkpt>
      <trkpt lat="43.46475" lon="6.27211">
        <ele>177.2</ele>
        <time>2019-12-11T15:12:44Z</time>
      </trkpt>
      <trkpt lat="43.46467" lon="6.27204">
        <ele>177.4</ele>
        <time>2019-12-11T15:12:55Z</time>
      </trkpt>
      <trkpt lat="43.4646" lon="6.27195">
        <ele>177.9</ele>
        <time>2019-12-11T15:13:08Z</time>
      </trkpt>
      <trkpt lat="43.46455" lon="6.27184">
        <ele>178.9</ele>
        <time>2019-12-11T15:13:22Z</time>
      </trkpt>
      <trkpt lat="43.46449" lon="6.27175">
        <ele>181</ele>
        <time>2019-12-11T15:13:35Z</time>
      </trkpt>
      <trkpt lat="43.46442" lon="6.27166">
        <ele>182.1</ele>
        <time>2019-12-11T15:13:43Z</time>
      </trkpt>
      <trkpt lat="43.46434" lon="6.27157">
        <ele>183.3</ele>
        <time>2019-12-11T15:13:52Z</time>
      </trkpt>
      <trkpt lat="43.46431" lon="6.27144">
        <ele>184.1</ele>
        <time>2019-12-11T15:14:00Z</time>
      </trkpt>
      <trkpt lat="43.46427" lon="6.27133">
        <ele>184.6</ele>
        <time>2019-12-11T15:14:09Z</time>
      </trkpt>
      <trkpt lat="43.46421" lon="6.27124">
        <ele>184.9</ele>
        <time>2019-12-11T15:14:17Z</time>
      </trkpt>
      <trkpt lat="43.46417" lon="6.27113">
        <ele>185.4</ele>
        <time>2019-12-11T15:14:25Z</time>
      </trkpt>
      <trkpt lat="43.46409" lon="6.27106">
        <ele>185.8</ele>
        <time>2019-12-11T15:14:34Z</time>
      </trkpt>
      <trkpt lat="43.46402" lon="6.27097">
        <ele>186</ele>
        <time>2019-12-11T15:14:45Z</time>
      </trkpt>
      <trkpt lat="43.46393" lon="6.27092">
        <ele>186.3</ele>
        <time>2019-12-11T15:14:54Z</time>
      </trkpt>
      <trkpt lat="43.46385" lon="6.27088">
        <ele>186.4</ele>
        <time>2019-12-11T15:15:01Z</time>
      </trkpt>
      <trkpt lat="43.46376" lon="6.27081">
        <ele>186.6</ele>
        <time>2019-12-11T15:15:10Z</time>
      </trkpt>
      <trkpt lat="43.4637" lon="6.27071">
        <ele>186.8</ele>
        <time>2019-12-11T15:15:20Z</time>
      </trkpt>
      <trkpt lat="43.46362" lon="6.27064">
        <ele>186</ele>
        <time>2019-12-11T15:15:26Z</time>
      </trkpt>
      <trkpt lat="43.46353" lon="6.2706">
        <ele>187.2</ele>
        <time>2019-12-11T15:15:36Z</time>
      </trkpt>
      <trkpt lat="43.46345" lon="6.27064">
        <ele>187.5</ele>
        <time>2019-12-11T15:15:49Z</time>
      </trkpt>
      <trkpt lat="43.46336" lon="6.27061">
        <ele>187.8</ele>
        <time>2019-12-11T15:15:58Z</time>
      </trkpt>
      <trkpt lat="43.46328" lon="6.27055">
        <ele>188</ele>
        <time>2019-12-11T15:16:04Z</time>
      </trkpt>
      <trkpt lat="43.46319" lon="6.2705">
        <ele>188.8</ele>
        <time>2019-12-11T15:16:14Z</time>
      </trkpt>
      <trkpt lat="43.46311" lon="6.27043">
        <ele>189.4</ele>
        <time>2019-12-11T15:16:24Z</time>
      </trkpt>
      <trkpt lat="43.46303" lon="6.27036">
        <ele>189.8</ele>
        <time>2019-12-11T15:16:32Z</time>
      </trkpt>
      <trkpt lat="43.46295" lon="6.2703">
        <ele>190.1</ele>
        <time>2019-12-11T15:16:44Z</time>
      </trkpt>
      <trkpt lat="43.46287" lon="6.27023">
        <ele>191</ele>
        <time>2019-12-11T15:16:55Z</time>
      </trkpt>
      <trkpt lat="43.4628" lon="6.27015">
        <ele>192</ele>
        <time>2019-12-11T15:17:05Z</time>
      </trkpt>
      <trkpt lat="43.46274" lon="6.27005">
        <ele>193.1</ele>
        <time>2019-12-11T15:17:16Z</time>
      </trkpt>
      <trkpt lat="43.46266" lon="6.26999">
        <ele>193.9</ele>
        <time>2019-12-11T15:17:24Z</time>
      </trkpt>
      <trkpt lat="43.46263" lon="6.26987">
        <ele>194.7</ele>
        <time>2019-12-11T15:17:33Z</time>
      </trkpt>
      <trkpt lat="43.46255" lon="6.26979">
        <ele>195.3</ele>
        <time>2019-12-11T15:17:43Z</time>
      </trkpt>
      <trkpt lat="43.46248" lon="6.26971">
        <ele>195.7</ele>
        <time>2019-12-11T15:17:52Z</time>
      </trkpt>
      <trkpt lat="43.46239" lon="6.26968">
        <ele>196.3</ele>
        <time>2019-12-11T15:17:59Z</time>
      </trkpt>
      <trkpt lat="43.46229" lon="6.26967">
        <ele>197.9</ele>
        <time>2019-12-11T15:18:12Z</time>
      </trkpt>
      <trkpt lat="43.4622" lon="6.26964">
        <ele>198.9</ele>
        <time>2019-12-11T15:18:21Z</time>
      </trkpt>
      <trkpt lat="43.46211" lon="6.26957">
        <ele>200.2</ele>
        <time>2019-12-11T15:18:36Z</time>
      </trkpt>
      <trkpt lat="43.46204" lon="6.26949">
        <ele>200.8</ele>
        <time>2019-12-11T15:18:44Z</time>
      </trkpt>
      <trkpt lat="43.46196" lon="6.26942">
        <ele>201.3</ele>
        <time>2019-12-11T15:18:51Z</time>
      </trkpt>
      <trkpt lat="43.4619" lon="6.26932">
        <ele>201.7</ele>
        <time>2019-12-11T15:19:02Z</time>
      </trkpt>
      <trkpt lat="43.46181" lon="6.26925">
        <ele>202.2</ele>
        <time>2019-12-11T15:19:09Z</time>
      </trkpt>
      <trkpt lat="43.46172" lon="6.26918">
        <ele>202</ele>
        <time>2019-12-11T15:19:15Z</time>
      </trkpt>
      <trkpt lat="43.46164" lon="6.26909">
        <ele>202.8</ele>
        <time>2019-12-11T15:19:22Z</time>
      </trkpt>
      <trkpt lat="43.46156" lon="6.26902">
        <ele>203.1</ele>
        <time>2019-12-11T15:19:29Z</time>
      </trkpt>
      <trkpt lat="43.46155" lon="6.2689">
        <ele>203.3</ele>
        <time>2019-12-11T15:19:39Z</time>
      </trkpt>
      <trkpt lat="43.46147" lon="6.26881">
        <ele>203.5</ele>
        <time>2019-12-11T15:19:46Z</time>
      </trkpt>
      <trkpt lat="43.46142" lon="6.2687">
        <ele>203.8</ele>
        <time>2019-12-11T15:19:56Z</time>
      </trkpt>
      <trkpt lat="43.46139" lon="6.26858">
        <ele>204</ele>
        <time>2019-12-11T15:20:03Z</time>
      </trkpt>
      <trkpt lat="43.46136" lon="6.26845">
        <ele>204.3</ele>
        <time>2019-12-11T15:20:10Z</time>
      </trkpt>
      <trkpt lat="43.4613" lon="6.26834">
        <ele>204.5</ele>
        <time>2019-12-11T15:20:18Z</time>
      </trkpt>
      <trkpt lat="43.46123" lon="6.26827">
        <ele>204.6</ele>
        <time>2019-12-11T15:20:24Z</time>
      </trkpt>
      <trkpt lat="43.46117" lon="6.26816">
        <ele>205</ele>
        <time>2019-12-11T15:20:33Z</time>
      </trkpt>
      <trkpt lat="43.4611" lon="6.26807">
        <ele>205.1</ele>
        <time>2019-12-11T15:20:42Z</time>
      </trkpt>
      <trkpt lat="43.46104" lon="6.26798">
        <ele>205.2</ele>
        <time>2019-12-11T15:20:49Z</time>
      </trkpt>
      <trkpt lat="43.46096" lon="6.26792">
        <ele>205.2</ele>
        <time>2019-12-11T15:20:55Z</time>
      </trkpt>
      <trkpt lat="43.4609" lon="6.26782">
        <ele>205.3</ele>
        <time>2019-12-11T15:21:02Z</time>
      </trkpt>
      <trkpt lat="43.46083" lon="6.26773">
        <ele>205.7</ele>
        <time>2019-12-11T15:21:17Z</time>
      </trkpt>
      <trkpt lat="43.46074" lon="6.26775">
        <ele>206.2</ele>
        <time>2019-12-11T15:21:25Z</time>
      </trkpt>
      <trkpt lat="43.46064" lon="6.26779">
        <ele>206.5</ele>
        <time>2019-12-11T15:21:34Z</time>
      </trkpt>
      <trkpt lat="43.46055" lon="6.26782">
        <ele>206.7</ele>
        <time>2019-12-11T15:21:42Z</time>
      </trkpt>
      <trkpt lat="43.46046" lon="6.26783">
        <ele>206.8</ele>
        <time>2019-12-11T15:21:51Z</time>
      </trkpt>
      <trkpt lat="43.46036" lon="6.26783">
        <ele>206.9</ele>
        <time>2019-12-11T15:21:59Z</time>
      </trkpt>
      <trkpt lat="43.46027" lon="6.26782">
        <ele>206.7</ele>
        <time>2019-12-11T15:22:08Z</time>
      </trkpt>
      <trkpt lat="43.46017" lon="6.26781">
        <ele>206.5</ele>
        <time>2019-12-11T15:22:15Z</time>
      </trkpt>
      <trkpt lat="43.46007" lon="6.26781">
        <ele>206.3</ele>
        <time>2019-12-11T15:22:23Z</time>
      </trkpt>
      <trkpt lat="43.45997" lon="6.26778">
        <ele>206.2</ele>
        <time>2019-12-11T15:22:31Z</time>
      </trkpt>
      <trkpt lat="43.45987" lon="6.26776">
        <ele>206.2</ele>
        <time>2019-12-11T15:22:40Z</time>
      </trkpt>
      <trkpt lat="43.45978" lon="6.26772">
        <ele>206.5</ele>
        <time>2019-12-11T15:22:50Z</time>
      </trkpt>
      <trkpt lat="43.45969" lon="6.26769">
        <ele>206.8</ele>
        <time>2019-12-11T15:22:57Z</time>
      </trkpt>
      <trkpt lat="43.4596" lon="6.26766">
        <ele>207</ele>
        <time>2019-12-11T15:23:03Z</time>
      </trkpt>
      <trkpt lat="43.45951" lon="6.26764">
        <ele>207.2</ele>
        <time>2019-12-11T15:23:11Z</time>
      </trkpt>
      <trkpt lat="43.45941" lon="6.26761">
        <ele>207.3</ele>
        <time>2019-12-11T15:23:19Z</time>
      </trkpt>
      <trkpt lat="43.45932" lon="6.26762">
        <ele>207</ele>
        <time>2019-12-11T15:23:27Z</time>
      </trkpt>
      <trkpt lat="43.45923" lon="6.26767">
        <ele>206.6</ele>
        <time>2019-12-11T15:23:35Z</time>
      </trkpt>
      <trkpt lat="43.45914" lon="6.26773">
        <ele>206.5</ele>
        <time>2019-12-11T15:23:42Z</time>
      </trkpt>
      <trkpt lat="43.45906" lon="6.26781">
        <ele>206.3</ele>
        <time>2019-12-11T15:23:49Z</time>
      </trkpt>
      <trkpt lat="43.45899" lon="6.2679">
        <ele>206.2</ele>
        <time>2019-12-11T15:23:56Z</time>
      </trkpt>
      <trkpt lat="43.45892" lon="6.26799">
        <ele>206.1</ele>
        <time>2019-12-11T15:24:04Z</time>
      </trkpt>
      <trkpt lat="43.4589" lon="6.26811">
        <ele>206.5</ele>
        <time>2019-12-11T15:24:12Z</time>
      </trkpt>
      <trkpt lat="43.45886" lon="6.26823">
        <ele>206.8</ele>
        <time>2019-12-11T15:24:20Z</time>
      </trkpt>
      <trkpt lat="43.45884" lon="6.26836">
        <ele>207.2</ele>
        <time>2019-12-11T15:24:29Z</time>
      </trkpt>
      <trkpt lat="43.4588" lon="6.26848">
        <ele>207.4</ele>
        <time>2019-12-11T15:24:38Z</time>
      </trkpt>
      <trkpt lat="43.45876" lon="6.26859">
        <ele>207.8</ele>
        <time>2019-12-11T15:24:46Z</time>
      </trkpt>
      <trkpt lat="43.45871" lon="6.2687">
        <ele>208.1</ele>
        <time>2019-12-11T15:24:54Z</time>
      </trkpt>
      <trkpt lat="43.45867" lon="6.26882">
        <ele>208.7</ele>
        <time>2019-12-11T15:25:03Z</time>
      </trkpt>
      <trkpt lat="43.45859" lon="6.26889">
        <ele>209.2</ele>
        <time>2019-12-11T15:25:13Z</time>
      </trkpt>
      <trkpt lat="43.4585" lon="6.26893">
        <ele>209.8</ele>
        <time>2019-12-11T15:26:48Z</time>
      </trkpt>
      <trkpt lat="43.45844" lon="6.26883">
        <ele>209.5</ele>
        <time>2019-12-11T15:27:11Z</time>
      </trkpt>
      <trkpt lat="43.45845" lon="6.26871">
        <ele>209</ele>
        <time>2019-12-11T15:27:27Z</time>
      </trkpt>
      <trkpt lat="43.45843" lon="6.26858">
        <ele>208</ele>
        <time>2019-12-11T15:27:44Z</time>
      </trkpt>
      <trkpt lat="43.45847" lon="6.26846">
        <ele>207</ele>
        <time>2019-12-11T15:27:55Z</time>
      </trkpt>
      <trkpt lat="43.45847" lon="6.26833">
        <ele>206.5</ele>
        <time>2019-12-11T15:28:05Z</time>
      </trkpt>
      <trkpt lat="43.45847" lon="6.26819">
        <ele>205.9</ele>
        <time>2019-12-11T15:28:17Z</time>
      </trkpt>
      <trkpt lat="43.4585" lon="6.26807">
        <ele>205.4</ele>
        <time>2019-12-11T15:28:27Z</time>
      </trkpt>
      <trkpt lat="43.45853" lon="6.26793">
        <ele>205.1</ele>
        <time>2019-12-11T15:28:37Z</time>
      </trkpt>
      <trkpt lat="43.45855" lon="6.26781">
        <ele>204.6</ele>
        <time>2019-12-11T15:28:47Z</time>
      </trkpt>
      <trkpt lat="43.45863" lon="6.26773">
        <ele>204.2</ele>
        <time>2019-12-11T15:28:54Z</time>
      </trkpt>
      <trkpt lat="43.45869" lon="6.26763">
        <ele>203.8</ele>
        <time>2019-12-11T15:29:01Z</time>
      </trkpt>
      <trkpt lat="43.45877" lon="6.26756">
        <ele>203.3</ele>
        <time>2019-12-11T15:29:07Z</time>
      </trkpt>
      <trkpt lat="43.45883" lon="6.26747">
        <ele>202.6</ele>
        <time>2019-12-11T15:29:14Z</time>
      </trkpt>
      <trkpt lat="43.45889" lon="6.26736">
        <ele>202.1</ele>
        <time>2019-12-11T15:29:25Z</time>
      </trkpt>
      <trkpt lat="43.45891" lon="6.26724">
        <ele>202</ele>
        <time>2019-12-11T15:29:34Z</time>
      </trkpt>
      <trkpt lat="43.45897" lon="6.26713">
        <ele>201.8</ele>
        <time>2019-12-11T15:29:44Z</time>
      </trkpt>
      <trkpt lat="43.45897" lon="6.267">
        <ele>202.3</ele>
        <time>2019-12-11T15:29:56Z</time>
      </trkpt>
      <trkpt lat="43.45904" lon="6.2669">
        <ele>202.8</ele>
        <time>2019-12-11T15:30:05Z</time>
      </trkpt>
      <trkpt lat="43.4591" lon="6.2668">
        <ele>203.6</ele>
        <time>2019-12-11T15:30:18Z</time>
      </trkpt>
      <trkpt lat="43.45916" lon="6.26671">
        <ele>204.5</ele>
        <time>2019-12-11T15:30:27Z</time>
      </trkpt>
      <trkpt lat="43.45921" lon="6.2666">
        <ele>206</ele>
        <time>2019-12-11T15:30:40Z</time>
      </trkpt>
      <trkpt lat="43.45927" lon="6.26649">
        <ele>207.2</ele>
        <time>2019-12-11T15:30:48Z</time>
      </trkpt>
      <trkpt lat="43.45933" lon="6.26638">
        <ele>208.7</ele>
        <time>2019-12-11T15:30:59Z</time>
      </trkpt>
      <trkpt lat="43.45942" lon="6.26632">
        <ele>210</ele>
        <time>2019-12-11T15:31:10Z</time>
      </trkpt>
      <trkpt lat="43.45948" lon="6.26623">
        <ele>211</ele>
        <time>2019-12-11T15:31:20Z</time>
      </trkpt>
      <trkpt lat="43.45955" lon="6.26613">
        <ele>211.7</ele>
        <time>2019-12-11T15:31:30Z</time>
      </trkpt>
      <trkpt lat="43.4596" lon="6.26603">
        <ele>212.2</ele>
        <time>2019-12-11T15:31:40Z</time>
      </trkpt>
      <trkpt lat="43.4596" lon="6.26591">
        <ele>212.4</ele>
        <time>2019-12-11T15:31:54Z</time>
      </trkpt>
      <trkpt lat="43.45966" lon="6.26581">
        <ele>212.6</ele>
        <time>2019-12-11T15:32:14Z</time>
      </trkpt>
      <trkpt lat="43.4596" lon="6.2657">
        <ele>212.3</ele>
        <time>2019-12-11T15:32:51Z</time>
      </trkpt>
      <trkpt lat="43.45958" lon="6.26558">
        <ele>212.5</ele>
        <time>2019-12-11T15:33:18Z</time>
      </trkpt>
      <trkpt lat="43.45956" lon="6.26545">
        <ele>214.1</ele>
        <time>2019-12-11T15:33:38Z</time>
      </trkpt>
      <trkpt lat="43.45955" lon="6.26532">
        <ele>214.1</ele>
        <time>2019-12-11T15:33:59Z</time>
      </trkpt>
      <trkpt lat="43.45956" lon="6.26519">
        <ele>214.2</ele>
        <time>2019-12-11T15:34:11Z</time>
      </trkpt>
      <trkpt lat="43.4596" lon="6.26507">
        <ele>214</ele>
        <time>2019-12-11T15:34:25Z</time>
      </trkpt>
      <trkpt lat="43.45963" lon="6.26495">
        <ele>214</ele>
        <time>2019-12-11T15:34:43Z</time>
      </trkpt>
      <trkpt lat="43.45963" lon="6.26481">
        <ele>214.6</ele>
        <time>2019-12-11T15:35:00Z</time>
      </trkpt>
      <trkpt lat="43.45962" lon="6.26469">
        <ele>215.8</ele>
        <time>2019-12-11T15:35:15Z</time>
      </trkpt>
      <trkpt lat="43.45959" lon="6.26457">
        <ele>218.4</ele>
        <time>2019-12-11T15:35:35Z</time>
      </trkpt>
      <trkpt lat="43.45953" lon="6.26447">
        <ele>220.1</ele>
        <time>2019-12-11T15:35:48Z</time>
      </trkpt>
      <trkpt lat="43.45948" lon="6.26435">
        <ele>220.9</ele>
        <time>2019-12-11T15:35:57Z</time>
      </trkpt>
      <trkpt lat="43.45942" lon="6.26425">
        <ele>221.8</ele>
        <time>2019-12-11T15:36:08Z</time>
      </trkpt>
      <trkpt lat="43.45937" lon="6.26414">
        <ele>222.9</ele>
        <time>2019-12-11T15:36:21Z</time>
      </trkpt>
      <trkpt lat="43.45934" lon="6.26401">
        <ele>223.5</ele>
        <time>2019-12-11T15:36:33Z</time>
      </trkpt>
      <trkpt lat="43.45929" lon="6.2639">
        <ele>223.9</ele>
        <time>2019-12-11T15:36:44Z</time>
      </trkpt>
      <trkpt lat="43.45923" lon="6.2638">
        <ele>224.8</ele>
        <time>2019-12-11T15:36:57Z</time>
      </trkpt>
      <trkpt lat="43.4592" lon="6.26368">
        <ele>226.2</ele>
        <time>2019-12-11T15:37:19Z</time>
      </trkpt>
      <trkpt lat="43.45924" lon="6.26357">
        <ele>225</ele>
        <time>2019-12-11T15:37:35Z</time>
      </trkpt>
      <trkpt lat="43.45926" lon="6.26345">
        <ele>224</ele>
        <time>2019-12-11T15:37:45Z</time>
      </trkpt>
      <trkpt lat="43.45932" lon="6.26334">
        <ele>222.9</ele>
        <time>2019-12-11T15:37:55Z</time>
      </trkpt>
      <trkpt lat="43.45931" lon="6.26322">
        <ele>221.6</ele>
        <time>2019-12-11T15:38:08Z</time>
      </trkpt>
      <trkpt lat="43.4593" lon="6.2631">
        <ele>220.4</ele>
        <time>2019-12-11T15:38:21Z</time>
      </trkpt>
      <trkpt lat="43.45938" lon="6.26305">
        <ele>214.9</ele>
        <time>2019-12-11T15:39:14Z</time>
      </trkpt>
      <trkpt lat="43.45948" lon="6.26307">
        <ele>213.8</ele>
        <time>2019-12-11T15:39:25Z</time>
      </trkpt>
      <trkpt lat="43.45957" lon="6.263">
        <ele>212.1</ele>
        <time>2019-12-11T15:39:38Z</time>
      </trkpt>
      <trkpt lat="43.45958" lon="6.26288">
        <ele>209.5</ele>
        <time>2019-12-11T15:39:55Z</time>
      </trkpt>
      <trkpt lat="43.45964" lon="6.26277">
        <ele>208.1</ele>
        <time>2019-12-11T15:40:09Z</time>
      </trkpt>
      <trkpt lat="43.45972" lon="6.2627">
        <ele>206.6</ele>
        <time>2019-12-11T15:40:29Z</time>
      </trkpt>
      <trkpt lat="43.45979" lon="6.26261">
        <ele>206.1</ele>
        <time>2019-12-11T15:40:42Z</time>
      </trkpt>
      <trkpt lat="43.45985" lon="6.26252">
        <ele>205.8</ele>
        <time>2019-12-11T15:40:52Z</time>
      </trkpt>
      <trkpt lat="43.45994" lon="6.26245">
        <ele>205.2</ele>
        <time>2019-12-11T15:41:03Z</time>
      </trkpt>
      <trkpt lat="43.46001" lon="6.26236">
        <ele>204.4</ele>
        <time>2019-12-11T15:41:18Z</time>
      </trkpt>
      <trkpt lat="43.46008" lon="6.26227">
        <ele>204.3</ele>
        <time>2019-12-11T15:41:27Z</time>
      </trkpt>
      <trkpt lat="43.46014" lon="6.26218">
        <ele>204.6</ele>
        <time>2019-12-11T15:41:37Z</time>
      </trkpt>
      <trkpt lat="43.4601" lon="6.26207">
        <ele>205.2</ele>
        <time>2019-12-11T15:42:28Z</time>
      </trkpt>
      <trkpt lat="43.4601" lon="6.26201">
        <ele>206</ele>
        <time>2019-12-11T15:42:58Z</time>
      </trkpt>
    </trkseg>
  </trk>
</gpx>